<?xml version="1.0" encoding="UTF-8" standalone="no" ?>
<gpx xmlns="http://www.topografix.com/GPX/1/1" xmlns:xsi="http://www.w3.org/2001/XMLSchema-instance" xsi:schemaLocation="http://www.topografix.com/GPX/1/1 http://www.topografix.com/GPX/1/1/gpx.xsd" version="1.1" creator="VisuGPX - https://www.visugpx.com">
  <metadata>
    <name>Course nocturne Couzon</name>
    <desc><![CDATA[Une course à la frontale de Couzon jusqu\'au Mont Thou. 10 km.]]></desc>
  </metadata>
  <trk>
    <name><![CDATA[2013-11-30-01]]></name>
    <trkseg>
      <trkpt lat="45.84463" lon="4.82921">
        <ele>175</ele>
        <time>2013-11-30T16:03:56Z</time>
      </trkpt>
      <trkpt lat="45.84446" lon="4.82934">
        <ele>195.1</ele>
        <time>2013-11-30T16:04:16Z</time>
      </trkpt>
      <trkpt lat="45.84455" lon="4.82929">
        <ele>189.1</ele>
        <time>2013-11-30T16:05:22Z</time>
      </trkpt>
      <trkpt lat="45.84455" lon="4.82929">
        <ele>189.1</ele>
        <time>2013-11-30T16:05:23Z</time>
      </trkpt>
      <trkpt lat="45.84464" lon="4.82931">
        <ele>189.3</ele>
        <time>2013-11-30T16:18:06Z</time>
      </trkpt>
      <trkpt lat="45.84473" lon="4.82931">
        <ele>189.3</ele>
        <time>2013-11-30T16:19:20Z</time>
      </trkpt>
      <trkpt lat="45.84455" lon="4.82929">
        <ele>189.3</ele>
        <time>2013-11-30T16:21:50Z</time>
      </trkpt>
      <trkpt lat="45.84455" lon="4.82929">
        <ele>189.3</ele>
        <time>2013-11-30T16:21:51Z</time>
      </trkpt>
      <trkpt lat="45.84462" lon="4.8292">
        <ele>187.6</ele>
        <time>2013-11-30T16:46:54Z</time>
      </trkpt>
      <trkpt lat="45.84464" lon="4.82903">
        <ele>188.6</ele>
        <time>2013-11-30T16:47:37Z</time>
      </trkpt>
      <trkpt lat="45.84459" lon="4.82894">
        <ele>188.8</ele>
        <time>2013-11-30T16:47:40Z</time>
      </trkpt>
      <trkpt lat="45.84456" lon="4.82884">
        <ele>189</ele>
        <time>2013-11-30T16:47:43Z</time>
      </trkpt>
      <trkpt lat="45.84454" lon="4.82873">
        <ele>189.1</ele>
        <time>2013-11-30T16:47:46Z</time>
      </trkpt>
      <trkpt lat="45.84453" lon="4.82863">
        <ele>189.1</ele>
        <time>2013-11-30T16:47:49Z</time>
      </trkpt>
      <trkpt lat="45.84451" lon="4.82851">
        <ele>189.3</ele>
        <time>2013-11-30T16:47:53Z</time>
      </trkpt>
      <trkpt lat="45.84448" lon="4.8284">
        <ele>189.3</ele>
        <time>2013-11-30T16:47:57Z</time>
      </trkpt>
      <trkpt lat="45.84447" lon="4.82838">
        <ele>189.3</ele>
        <time>2013-11-30T16:47:58Z</time>
      </trkpt>
      <trkpt lat="45.84438" lon="4.82822">
        <ele>189.3</ele>
        <time>2013-11-30T16:48:05Z</time>
      </trkpt>
      <trkpt lat="45.84434" lon="4.82813">
        <ele>189.3</ele>
        <time>2013-11-30T16:48:09Z</time>
      </trkpt>
      <trkpt lat="45.8443" lon="4.82803">
        <ele>189.1</ele>
        <time>2013-11-30T16:48:13Z</time>
      </trkpt>
      <trkpt lat="45.84427" lon="4.82792">
        <ele>189.1</ele>
        <time>2013-11-30T16:48:17Z</time>
      </trkpt>
      <trkpt lat="45.84423" lon="4.82782">
        <ele>188.8</ele>
        <time>2013-11-30T16:48:21Z</time>
      </trkpt>
      <trkpt lat="45.8442" lon="4.82771">
        <ele>188.8</ele>
        <time>2013-11-30T16:48:25Z</time>
      </trkpt>
      <trkpt lat="45.84418" lon="4.82761">
        <ele>188.6</ele>
        <time>2013-11-30T16:48:29Z</time>
      </trkpt>
      <trkpt lat="45.84415" lon="4.82751">
        <ele>188.6</ele>
        <time>2013-11-30T16:48:33Z</time>
      </trkpt>
      <trkpt lat="45.84413" lon="4.82738">
        <ele>188.3</ele>
        <time>2013-11-30T16:48:38Z</time>
      </trkpt>
      <trkpt lat="45.84411" lon="4.82726">
        <ele>188.3</ele>
        <time>2013-11-30T16:48:43Z</time>
      </trkpt>
      <trkpt lat="45.84409" lon="4.82714">
        <ele>188.1</ele>
        <time>2013-11-30T16:48:48Z</time>
      </trkpt>
      <trkpt lat="45.84406" lon="4.82703">
        <ele>188.1</ele>
        <time>2013-11-30T16:48:53Z</time>
      </trkpt>
      <trkpt lat="45.844" lon="4.82696">
        <ele>188.1</ele>
        <time>2013-11-30T16:48:58Z</time>
      </trkpt>
      <trkpt lat="45.84399" lon="4.82694">
        <ele>188.3</ele>
        <time>2013-11-30T16:48:59Z</time>
      </trkpt>
      <trkpt lat="45.84389" lon="4.82678">
        <ele>188.8</ele>
        <time>2013-11-30T16:49:09Z</time>
      </trkpt>
      <trkpt lat="45.84385" lon="4.82667">
        <ele>189.1</ele>
        <time>2013-11-30T16:49:15Z</time>
      </trkpt>
      <trkpt lat="45.84381" lon="4.82657">
        <ele>189.6</ele>
        <time>2013-11-30T16:49:22Z</time>
      </trkpt>
      <trkpt lat="45.84376" lon="4.82646">
        <ele>190.3</ele>
        <time>2013-11-30T16:49:29Z</time>
      </trkpt>
      <trkpt lat="45.84373" lon="4.82635">
        <ele>190.8</ele>
        <time>2013-11-30T16:49:37Z</time>
      </trkpt>
      <trkpt lat="45.84374" lon="4.82624">
        <ele>191.3</ele>
        <time>2013-11-30T16:49:43Z</time>
      </trkpt>
      <trkpt lat="45.84373" lon="4.82612">
        <ele>191.8</ele>
        <time>2013-11-30T16:49:50Z</time>
      </trkpt>
      <trkpt lat="45.84372" lon="4.826">
        <ele>192.5</ele>
        <time>2013-11-30T16:49:56Z</time>
      </trkpt>
      <trkpt lat="45.84372" lon="4.82588">
        <ele>193.1</ele>
        <time>2013-11-30T16:50:02Z</time>
      </trkpt>
      <trkpt lat="45.84372" lon="4.82587">
        <ele>193.3</ele>
        <time>2013-11-30T16:50:03Z</time>
      </trkpt>
      <trkpt lat="45.84372" lon="4.82564">
        <ele>195.3</ele>
        <time>2013-11-30T16:50:17Z</time>
      </trkpt>
      <trkpt lat="45.84377" lon="4.82555">
        <ele>196.5</ele>
        <time>2013-11-30T16:50:24Z</time>
      </trkpt>
      <trkpt lat="45.84383" lon="4.82546">
        <ele>197.6</ele>
        <time>2013-11-30T16:50:31Z</time>
      </trkpt>
      <trkpt lat="45.84386" lon="4.82534">
        <ele>199.1</ele>
        <time>2013-11-30T16:50:39Z</time>
      </trkpt>
      <trkpt lat="45.84386" lon="4.82521">
        <ele>200.3</ele>
        <time>2013-11-30T16:50:46Z</time>
      </trkpt>
      <trkpt lat="45.84386" lon="4.82509">
        <ele>201.3</ele>
        <time>2013-11-30T16:50:52Z</time>
      </trkpt>
      <trkpt lat="45.84382" lon="4.82498">
        <ele>202.6</ele>
        <time>2013-11-30T16:50:59Z</time>
      </trkpt>
      <trkpt lat="45.84378" lon="4.82487">
        <ele>204.1</ele>
        <time>2013-11-30T16:51:06Z</time>
      </trkpt>
      <trkpt lat="45.84377" lon="4.82486">
        <ele>204.3</ele>
        <time>2013-11-30T16:51:07Z</time>
      </trkpt>
      <trkpt lat="45.84371" lon="4.82466">
        <ele>206.6</ele>
        <time>2013-11-30T16:51:20Z</time>
      </trkpt>
      <trkpt lat="45.84368" lon="4.82454">
        <ele>208.1</ele>
        <time>2013-11-30T16:51:27Z</time>
      </trkpt>
      <trkpt lat="45.84365" lon="4.82444">
        <ele>209.5</ele>
        <time>2013-11-30T16:51:34Z</time>
      </trkpt>
      <trkpt lat="45.84362" lon="4.82433">
        <ele>210.6</ele>
        <time>2013-11-30T16:51:40Z</time>
      </trkpt>
      <trkpt lat="45.84359" lon="4.82422">
        <ele>211.6</ele>
        <time>2013-11-30T16:51:46Z</time>
      </trkpt>
      <trkpt lat="45.84361" lon="4.8241">
        <ele>213.3</ele>
        <time>2013-11-30T16:51:54Z</time>
      </trkpt>
      <trkpt lat="45.84365" lon="4.824">
        <ele>215.1</ele>
        <time>2013-11-30T16:52:02Z</time>
      </trkpt>
      <trkpt lat="45.84366" lon="4.82388">
        <ele>216.8</ele>
        <time>2013-11-30T16:52:09Z</time>
      </trkpt>
      <trkpt lat="45.84366" lon="4.82386">
        <ele>217.1</ele>
        <time>2013-11-30T16:52:10Z</time>
      </trkpt>
      <trkpt lat="45.84363" lon="4.82366">
        <ele>219.5</ele>
        <time>2013-11-30T16:52:19Z</time>
      </trkpt>
      <trkpt lat="45.84359" lon="4.82355">
        <ele>221.1</ele>
        <time>2013-11-30T16:52:25Z</time>
      </trkpt>
      <trkpt lat="45.84356" lon="4.82344">
        <ele>222.5</ele>
        <time>2013-11-30T16:52:31Z</time>
      </trkpt>
      <trkpt lat="45.84353" lon="4.82333">
        <ele>224.3</ele>
        <time>2013-11-30T16:52:38Z</time>
      </trkpt>
      <trkpt lat="45.84349" lon="4.82321">
        <ele>226.8</ele>
        <time>2013-11-30T16:52:47Z</time>
      </trkpt>
      <trkpt lat="45.84343" lon="4.82312">
        <ele>232.1</ele>
        <time>2013-11-30T16:53:18Z</time>
      </trkpt>
      <trkpt lat="45.84343" lon="4.8231">
        <ele>232.5</ele>
        <time>2013-11-30T16:53:19Z</time>
      </trkpt>
      <trkpt lat="45.84342" lon="4.82291">
        <ele>235.1</ele>
        <time>2013-11-30T16:53:27Z</time>
      </trkpt>
      <trkpt lat="45.84343" lon="4.8228">
        <ele>236.1</ele>
        <time>2013-11-30T16:53:31Z</time>
      </trkpt>
      <trkpt lat="45.84344" lon="4.82268">
        <ele>237.3</ele>
        <time>2013-11-30T16:53:35Z</time>
      </trkpt>
      <trkpt lat="45.84345" lon="4.82258">
        <ele>238.3</ele>
        <time>2013-11-30T16:53:39Z</time>
      </trkpt>
      <trkpt lat="45.84346" lon="4.82245">
        <ele>239.6</ele>
        <time>2013-11-30T16:53:44Z</time>
      </trkpt>
      <trkpt lat="45.84348" lon="4.82235">
        <ele>240.6</ele>
        <time>2013-11-30T16:53:48Z</time>
      </trkpt>
      <trkpt lat="45.8435" lon="4.82223">
        <ele>241.6</ele>
        <time>2013-11-30T16:53:53Z</time>
      </trkpt>
      <trkpt lat="45.84353" lon="4.82213">
        <ele>242.8</ele>
        <time>2013-11-30T16:53:58Z</time>
      </trkpt>
      <trkpt lat="45.84356" lon="4.82201">
        <ele>243.8</ele>
        <time>2013-11-30T16:54:03Z</time>
      </trkpt>
      <trkpt lat="45.84359" lon="4.82192">
        <ele>244.6</ele>
        <time>2013-11-30T16:54:07Z</time>
      </trkpt>
      <trkpt lat="45.84362" lon="4.82182">
        <ele>245.3</ele>
        <time>2013-11-30T16:54:11Z</time>
      </trkpt>
      <trkpt lat="45.84366" lon="4.82171">
        <ele>246.3</ele>
        <time>2013-11-30T16:54:16Z</time>
      </trkpt>
      <trkpt lat="45.84369" lon="4.82161">
        <ele>247.1</ele>
        <time>2013-11-30T16:54:20Z</time>
      </trkpt>
      <trkpt lat="45.84369" lon="4.82158">
        <ele>247.1</ele>
        <time>2013-11-30T16:54:21Z</time>
      </trkpt>
      <trkpt lat="45.84374" lon="4.82141">
        <ele>248.5</ele>
        <time>2013-11-30T16:54:28Z</time>
      </trkpt>
      <trkpt lat="45.84378" lon="4.82131">
        <ele>249.1</ele>
        <time>2013-11-30T16:54:32Z</time>
      </trkpt>
      <trkpt lat="45.84381" lon="4.82122">
        <ele>249.8</ele>
        <time>2013-11-30T16:54:36Z</time>
      </trkpt>
      <trkpt lat="45.84384" lon="4.82113">
        <ele>250.6</ele>
        <time>2013-11-30T16:54:40Z</time>
      </trkpt>
      <trkpt lat="45.84388" lon="4.82104">
        <ele>251.1</ele>
        <time>2013-11-30T16:54:44Z</time>
      </trkpt>
      <trkpt lat="45.84391" lon="4.82094">
        <ele>251.8</ele>
        <time>2013-11-30T16:54:48Z</time>
      </trkpt>
      <trkpt lat="45.84394" lon="4.82084">
        <ele>252.5</ele>
        <time>2013-11-30T16:54:52Z</time>
      </trkpt>
      <trkpt lat="45.84396" lon="4.82073">
        <ele>252.8</ele>
        <time>2013-11-30T16:54:56Z</time>
      </trkpt>
      <trkpt lat="45.84397" lon="4.82062">
        <ele>253.1</ele>
        <time>2013-11-30T16:55:00Z</time>
      </trkpt>
      <trkpt lat="45.84398" lon="4.8205">
        <ele>253.3</ele>
        <time>2013-11-30T16:55:05Z</time>
      </trkpt>
      <trkpt lat="45.84398" lon="4.82038">
        <ele>253.6</ele>
        <time>2013-11-30T16:55:10Z</time>
      </trkpt>
      <trkpt lat="45.84399" lon="4.82026">
        <ele>253.8</ele>
        <time>2013-11-30T16:55:15Z</time>
      </trkpt>
      <trkpt lat="45.844" lon="4.82013">
        <ele>254.1</ele>
        <time>2013-11-30T16:55:20Z</time>
      </trkpt>
      <trkpt lat="45.84401" lon="4.82003">
        <ele>254.5</ele>
        <time>2013-11-30T16:55:24Z</time>
      </trkpt>
      <trkpt lat="45.84401" lon="4.82">
        <ele>254.6</ele>
        <time>2013-11-30T16:55:25Z</time>
      </trkpt>
      <trkpt lat="45.84393" lon="4.8199">
        <ele>256.7</ele>
        <time>2013-11-30T16:55:40Z</time>
      </trkpt>
      <trkpt lat="45.84389" lon="4.82001">
        <ele>257.7</ele>
        <time>2013-11-30T16:55:46Z</time>
      </trkpt>
      <trkpt lat="45.84385" lon="4.8201">
        <ele>258.5</ele>
        <time>2013-11-30T16:55:51Z</time>
      </trkpt>
      <trkpt lat="45.84378" lon="4.82018">
        <ele>259.2</ele>
        <time>2013-11-30T16:55:57Z</time>
      </trkpt>
      <trkpt lat="45.84372" lon="4.82025">
        <ele>260.2</ele>
        <time>2013-11-30T16:56:02Z</time>
      </trkpt>
      <trkpt lat="45.84365" lon="4.82031">
        <ele>261</ele>
        <time>2013-11-30T16:56:07Z</time>
      </trkpt>
      <trkpt lat="45.84359" lon="4.82036">
        <ele>262</ele>
        <time>2013-11-30T16:56:12Z</time>
      </trkpt>
      <trkpt lat="45.84352" lon="4.82043">
        <ele>263</ele>
        <time>2013-11-30T16:56:17Z</time>
      </trkpt>
      <trkpt lat="45.84345" lon="4.82049">
        <ele>263.7</ele>
        <time>2013-11-30T16:56:22Z</time>
      </trkpt>
      <trkpt lat="45.84338" lon="4.82055">
        <ele>264.7</ele>
        <time>2013-11-30T16:56:27Z</time>
      </trkpt>
      <trkpt lat="45.84337" lon="4.82056">
        <ele>264.7</ele>
        <time>2013-11-30T16:56:28Z</time>
      </trkpt>
      <trkpt lat="45.84326" lon="4.82067">
        <ele>266.2</ele>
        <time>2013-11-30T16:56:37Z</time>
      </trkpt>
      <trkpt lat="45.84319" lon="4.82073">
        <ele>267</ele>
        <time>2013-11-30T16:56:42Z</time>
      </trkpt>
      <trkpt lat="45.84312" lon="4.82079">
        <ele>267.7</ele>
        <time>2013-11-30T16:56:47Z</time>
      </trkpt>
      <trkpt lat="45.84306" lon="4.82086">
        <ele>268.5</ele>
        <time>2013-11-30T16:56:52Z</time>
      </trkpt>
      <trkpt lat="45.843" lon="4.82092">
        <ele>269.2</ele>
        <time>2013-11-30T16:56:57Z</time>
      </trkpt>
      <trkpt lat="45.84294" lon="4.82098">
        <ele>270</ele>
        <time>2013-11-30T16:57:02Z</time>
      </trkpt>
      <trkpt lat="45.84286" lon="4.82105">
        <ele>271.1</ele>
        <time>2013-11-30T16:57:09Z</time>
      </trkpt>
      <trkpt lat="45.84279" lon="4.82108">
        <ele>272</ele>
        <time>2013-11-30T16:57:15Z</time>
      </trkpt>
      <trkpt lat="45.8427" lon="4.82111">
        <ele>273</ele>
        <time>2013-11-30T16:57:21Z</time>
      </trkpt>
      <trkpt lat="45.84261" lon="4.82114">
        <ele>274.1</ele>
        <time>2013-11-30T16:57:27Z</time>
      </trkpt>
      <trkpt lat="45.84253" lon="4.82118">
        <ele>275.2</ele>
        <time>2013-11-30T16:57:41Z</time>
      </trkpt>
      <trkpt lat="45.84253" lon="4.82119">
        <ele>275.5</ele>
        <time>2013-11-30T16:57:42Z</time>
      </trkpt>
      <trkpt lat="45.84239" lon="4.82122">
        <ele>277.6</ele>
        <time>2013-11-30T16:57:53Z</time>
      </trkpt>
      <trkpt lat="45.84231" lon="4.82123">
        <ele>278.2</ele>
        <time>2013-11-30T16:57:58Z</time>
      </trkpt>
      <trkpt lat="45.84222" lon="4.82122">
        <ele>279.2</ele>
        <time>2013-11-30T16:58:04Z</time>
      </trkpt>
      <trkpt lat="45.84216" lon="4.8212">
        <ele>279.7</ele>
        <time>2013-11-30T16:58:08Z</time>
      </trkpt>
      <trkpt lat="45.84208" lon="4.82118">
        <ele>280.2</ele>
        <time>2013-11-30T16:58:11Z</time>
      </trkpt>
      <trkpt lat="45.842" lon="4.82115">
        <ele>280.6</ele>
        <time>2013-11-30T16:58:14Z</time>
      </trkpt>
      <trkpt lat="45.84193" lon="4.82112">
        <ele>280.7</ele>
        <time>2013-11-30T16:58:17Z</time>
      </trkpt>
      <trkpt lat="45.84185" lon="4.82109">
        <ele>281.2</ele>
        <time>2013-11-30T16:58:20Z</time>
      </trkpt>
      <trkpt lat="45.84176" lon="4.82106">
        <ele>281.7</ele>
        <time>2013-11-30T16:58:30Z</time>
      </trkpt>
      <trkpt lat="45.8417" lon="4.82103">
        <ele>283</ele>
        <time>2013-11-30T16:58:42Z</time>
      </trkpt>
      <trkpt lat="45.84167" lon="4.82102">
        <ele>283.2</ele>
        <time>2013-11-30T16:58:43Z</time>
      </trkpt>
      <trkpt lat="45.84154" lon="4.82097">
        <ele>284.5</ele>
        <time>2013-11-30T16:58:48Z</time>
      </trkpt>
      <trkpt lat="45.84147" lon="4.82092">
        <ele>285.7</ele>
        <time>2013-11-30T16:59:02Z</time>
      </trkpt>
      <trkpt lat="45.84138" lon="4.8209">
        <ele>287</ele>
        <time>2013-11-30T16:59:08Z</time>
      </trkpt>
      <trkpt lat="45.8413" lon="4.82086">
        <ele>288.1</ele>
        <time>2013-11-30T16:59:14Z</time>
      </trkpt>
      <trkpt lat="45.84123" lon="4.82082">
        <ele>289.2</ele>
        <time>2013-11-30T16:59:20Z</time>
      </trkpt>
      <trkpt lat="45.84116" lon="4.82074">
        <ele>290.6</ele>
        <time>2013-11-30T16:59:26Z</time>
      </trkpt>
      <trkpt lat="45.84116" lon="4.82062">
        <ele>291.7</ele>
        <time>2013-11-30T16:59:32Z</time>
      </trkpt>
      <trkpt lat="45.84124" lon="4.82057">
        <ele>293.2</ele>
        <time>2013-11-30T16:59:39Z</time>
      </trkpt>
      <trkpt lat="45.84131" lon="4.82053">
        <ele>294.6</ele>
        <time>2013-11-30T16:59:45Z</time>
      </trkpt>
      <trkpt lat="45.84133" lon="4.82053">
        <ele>294.7</ele>
        <time>2013-11-30T16:59:46Z</time>
      </trkpt>
      <trkpt lat="45.84147" lon="4.82044">
        <ele>297.2</ele>
        <time>2013-11-30T16:59:58Z</time>
      </trkpt>
      <trkpt lat="45.84154" lon="4.82037">
        <ele>298.7</ele>
        <time>2013-11-30T17:00:05Z</time>
      </trkpt>
      <trkpt lat="45.84161" lon="4.82029">
        <ele>300.1</ele>
        <time>2013-11-30T17:00:12Z</time>
      </trkpt>
      <trkpt lat="45.84167" lon="4.82021">
        <ele>301.5</ele>
        <time>2013-11-30T17:00:19Z</time>
      </trkpt>
      <trkpt lat="45.84173" lon="4.82013">
        <ele>302.6</ele>
        <time>2013-11-30T17:00:26Z</time>
      </trkpt>
      <trkpt lat="45.84179" lon="4.82004">
        <ele>303.6</ele>
        <time>2013-11-30T17:00:33Z</time>
      </trkpt>
      <trkpt lat="45.84185" lon="4.81997">
        <ele>304.5</ele>
        <time>2013-11-30T17:00:40Z</time>
      </trkpt>
      <trkpt lat="45.84192" lon="4.8199">
        <ele>305.2</ele>
        <time>2013-11-30T17:00:46Z</time>
      </trkpt>
      <trkpt lat="45.84193" lon="4.81989">
        <ele>305.5</ele>
        <time>2013-11-30T17:00:47Z</time>
      </trkpt>
      <trkpt lat="45.84204" lon="4.81976">
        <ele>306.7</ele>
        <time>2013-11-30T17:00:56Z</time>
      </trkpt>
      <trkpt lat="45.8421" lon="4.81969">
        <ele>307.7</ele>
        <time>2013-11-30T17:01:02Z</time>
      </trkpt>
      <trkpt lat="45.84217" lon="4.81961">
        <ele>308.7</ele>
        <time>2013-11-30T17:01:09Z</time>
      </trkpt>
      <trkpt lat="45.84225" lon="4.81955">
        <ele>310</ele>
        <time>2013-11-30T17:01:17Z</time>
      </trkpt>
      <trkpt lat="45.84232" lon="4.8195">
        <ele>311.2</ele>
        <time>2013-11-30T17:01:25Z</time>
      </trkpt>
      <trkpt lat="45.84239" lon="4.81944">
        <ele>312.2</ele>
        <time>2013-11-30T17:01:34Z</time>
      </trkpt>
      <trkpt lat="45.84245" lon="4.81935">
        <ele>313.2</ele>
        <time>2013-11-30T17:01:42Z</time>
      </trkpt>
      <trkpt lat="45.8425" lon="4.81926">
        <ele>314.2</ele>
        <time>2013-11-30T17:01:49Z</time>
      </trkpt>
      <trkpt lat="45.84251" lon="4.81925">
        <ele>314.5</ele>
        <time>2013-11-30T17:01:50Z</time>
      </trkpt>
      <trkpt lat="45.84256" lon="4.81903">
        <ele>315.7</ele>
        <time>2013-11-30T17:02:00Z</time>
      </trkpt>
      <trkpt lat="45.84255" lon="4.81891">
        <ele>316.7</ele>
        <time>2013-11-30T17:02:05Z</time>
      </trkpt>
      <trkpt lat="45.84253" lon="4.81879">
        <ele>317.5</ele>
        <time>2013-11-30T17:02:10Z</time>
      </trkpt>
      <trkpt lat="45.84252" lon="4.81868">
        <ele>318.6</ele>
        <time>2013-11-30T17:02:16Z</time>
      </trkpt>
      <trkpt lat="45.84251" lon="4.81856">
        <ele>319.7</ele>
        <time>2013-11-30T17:02:22Z</time>
      </trkpt>
      <trkpt lat="45.8425" lon="4.81844">
        <ele>321.2</ele>
        <time>2013-11-30T17:02:29Z</time>
      </trkpt>
      <trkpt lat="45.84249" lon="4.81832">
        <ele>323.1</ele>
        <time>2013-11-30T17:02:37Z</time>
      </trkpt>
      <trkpt lat="45.84248" lon="4.8182">
        <ele>324.5</ele>
        <time>2013-11-30T17:02:44Z</time>
      </trkpt>
      <trkpt lat="45.84249" lon="4.81809">
        <ele>325.2</ele>
        <time>2013-11-30T17:02:49Z</time>
      </trkpt>
      <trkpt lat="45.84249" lon="4.81797">
        <ele>326.2</ele>
        <time>2013-11-30T17:02:54Z</time>
      </trkpt>
      <trkpt lat="45.84249" lon="4.81795">
        <ele>326.5</ele>
        <time>2013-11-30T17:02:55Z</time>
      </trkpt>
      <trkpt lat="45.84253" lon="4.81775">
        <ele>328.2</ele>
        <time>2013-11-30T17:03:05Z</time>
      </trkpt>
      <trkpt lat="45.84258" lon="4.81764">
        <ele>330.1</ele>
        <time>2013-11-30T17:03:14Z</time>
      </trkpt>
      <trkpt lat="45.84261" lon="4.81754">
        <ele>331.2</ele>
        <time>2013-11-30T17:03:20Z</time>
      </trkpt>
      <trkpt lat="45.84265" lon="4.81743">
        <ele>332.2</ele>
        <time>2013-11-30T17:03:26Z</time>
      </trkpt>
      <trkpt lat="45.84268" lon="4.81733">
        <ele>333.2</ele>
        <time>2013-11-30T17:03:32Z</time>
      </trkpt>
      <trkpt lat="45.84273" lon="4.81724">
        <ele>334.5</ele>
        <time>2013-11-30T17:03:38Z</time>
      </trkpt>
      <trkpt lat="45.84278" lon="4.81714">
        <ele>335.7</ele>
        <time>2013-11-30T17:03:45Z</time>
      </trkpt>
      <trkpt lat="45.84282" lon="4.81704">
        <ele>336.2</ele>
        <time>2013-11-30T17:03:51Z</time>
      </trkpt>
      <trkpt lat="45.84285" lon="4.81693">
        <ele>336.5</ele>
        <time>2013-11-30T17:03:57Z</time>
      </trkpt>
      <trkpt lat="45.84286" lon="4.81691">
        <ele>336.5</ele>
        <time>2013-11-30T17:03:58Z</time>
      </trkpt>
      <trkpt lat="45.84296" lon="4.81675">
        <ele>335.7</ele>
        <time>2013-11-30T17:04:09Z</time>
      </trkpt>
      <trkpt lat="45.84301" lon="4.81667">
        <ele>335.5</ele>
        <time>2013-11-30T17:04:15Z</time>
      </trkpt>
      <trkpt lat="45.84305" lon="4.81657">
        <ele>335.1</ele>
        <time>2013-11-30T17:04:21Z</time>
      </trkpt>
      <trkpt lat="45.8431" lon="4.81648">
        <ele>335.2</ele>
        <time>2013-11-30T17:04:25Z</time>
      </trkpt>
      <trkpt lat="45.84316" lon="4.8164">
        <ele>335.5</ele>
        <time>2013-11-30T17:04:29Z</time>
      </trkpt>
      <trkpt lat="45.84322" lon="4.8163">
        <ele>336.2</ele>
        <time>2013-11-30T17:04:34Z</time>
      </trkpt>
      <trkpt lat="45.84326" lon="4.81621">
        <ele>337.1</ele>
        <time>2013-11-30T17:04:39Z</time>
      </trkpt>
      <trkpt lat="45.8433" lon="4.81611">
        <ele>338</ele>
        <time>2013-11-30T17:04:44Z</time>
      </trkpt>
      <trkpt lat="45.84335" lon="4.81601">
        <ele>338.7</ele>
        <time>2013-11-30T17:04:49Z</time>
      </trkpt>
      <trkpt lat="45.84338" lon="4.81591">
        <ele>339.5</ele>
        <time>2013-11-30T17:04:54Z</time>
      </trkpt>
      <trkpt lat="45.84343" lon="4.81582">
        <ele>340.2</ele>
        <time>2013-11-30T17:04:59Z</time>
      </trkpt>
      <trkpt lat="45.84344" lon="4.8158">
        <ele>340.2</ele>
        <time>2013-11-30T17:05:00Z</time>
      </trkpt>
      <trkpt lat="45.84354" lon="4.81562">
        <ele>342</ele>
        <time>2013-11-30T17:05:11Z</time>
      </trkpt>
      <trkpt lat="45.84357" lon="4.81552">
        <ele>343.1</ele>
        <time>2013-11-30T17:05:16Z</time>
      </trkpt>
      <trkpt lat="45.8436" lon="4.8154">
        <ele>344</ele>
        <time>2013-11-30T17:05:22Z</time>
      </trkpt>
      <trkpt lat="45.84365" lon="4.81531">
        <ele>344.7</ele>
        <time>2013-11-30T17:05:27Z</time>
      </trkpt>
      <trkpt lat="45.84369" lon="4.81521">
        <ele>345.2</ele>
        <time>2013-11-30T17:05:33Z</time>
      </trkpt>
      <trkpt lat="45.84374" lon="4.81512">
        <ele>345.7</ele>
        <time>2013-11-30T17:05:38Z</time>
      </trkpt>
      <trkpt lat="45.84379" lon="4.81504">
        <ele>346.2</ele>
        <time>2013-11-30T17:05:43Z</time>
      </trkpt>
      <trkpt lat="45.84382" lon="4.81492">
        <ele>347</ele>
        <time>2013-11-30T17:05:50Z</time>
      </trkpt>
      <trkpt lat="45.8438" lon="4.81481">
        <ele>348.2</ele>
        <time>2013-11-30T17:05:58Z</time>
      </trkpt>
      <trkpt lat="45.84374" lon="4.81472">
        <ele>349.2</ele>
        <time>2013-11-30T17:06:07Z</time>
      </trkpt>
      <trkpt lat="45.84374" lon="4.81471">
        <ele>349.5</ele>
        <time>2013-11-30T17:06:08Z</time>
      </trkpt>
      <trkpt lat="45.84373" lon="4.8145">
        <ele>351.1</ele>
        <time>2013-11-30T17:06:20Z</time>
      </trkpt>
      <trkpt lat="45.84378" lon="4.8144">
        <ele>352.2</ele>
        <time>2013-11-30T17:06:27Z</time>
      </trkpt>
      <trkpt lat="45.84384" lon="4.81432">
        <ele>353.6</ele>
        <time>2013-11-30T17:06:34Z</time>
      </trkpt>
      <trkpt lat="45.84391" lon="4.81426">
        <ele>355.7</ele>
        <time>2013-11-30T17:06:41Z</time>
      </trkpt>
      <trkpt lat="45.84398" lon="4.81418">
        <ele>358.5</ele>
        <time>2013-11-30T17:06:49Z</time>
      </trkpt>
      <trkpt lat="45.84405" lon="4.8141">
        <ele>360.6</ele>
        <time>2013-11-30T17:06:56Z</time>
      </trkpt>
      <trkpt lat="45.84411" lon="4.81402">
        <ele>362.6</ele>
        <time>2013-11-30T17:07:02Z</time>
      </trkpt>
      <trkpt lat="45.84417" lon="4.81394">
        <ele>364.2</ele>
        <time>2013-11-30T17:07:07Z</time>
      </trkpt>
      <trkpt lat="45.84421" lon="4.81386">
        <ele>365.7</ele>
        <time>2013-11-30T17:07:11Z</time>
      </trkpt>
      <trkpt lat="45.84422" lon="4.81384">
        <ele>366.1</ele>
        <time>2013-11-30T17:07:12Z</time>
      </trkpt>
      <trkpt lat="45.8443" lon="4.81365">
        <ele>368.7</ele>
        <time>2013-11-30T17:07:21Z</time>
      </trkpt>
      <trkpt lat="45.84433" lon="4.81353">
        <ele>369.5</ele>
        <time>2013-11-30T17:07:26Z</time>
      </trkpt>
      <trkpt lat="45.84435" lon="4.81343">
        <ele>370.2</ele>
        <time>2013-11-30T17:07:31Z</time>
      </trkpt>
      <trkpt lat="45.84437" lon="4.81332">
        <ele>371.2</ele>
        <time>2013-11-30T17:07:36Z</time>
      </trkpt>
      <trkpt lat="45.84439" lon="4.81321">
        <ele>372.5</ele>
        <time>2013-11-30T17:07:41Z</time>
      </trkpt>
      <trkpt lat="45.84441" lon="4.81308">
        <ele>374.2</ele>
        <time>2013-11-30T17:07:47Z</time>
      </trkpt>
      <trkpt lat="45.84443" lon="4.81296">
        <ele>375.6</ele>
        <time>2013-11-30T17:07:53Z</time>
      </trkpt>
      <trkpt lat="45.84446" lon="4.81285">
        <ele>376.6</ele>
        <time>2013-11-30T17:07:58Z</time>
      </trkpt>
      <trkpt lat="45.84448" lon="4.81275">
        <ele>377.2</ele>
        <time>2013-11-30T17:08:02Z</time>
      </trkpt>
      <trkpt lat="45.8445" lon="4.81266">
        <ele>377.7</ele>
        <time>2013-11-30T17:08:05Z</time>
      </trkpt>
      <trkpt lat="45.84453" lon="4.81254">
        <ele>378.1</ele>
        <time>2013-11-30T17:08:09Z</time>
      </trkpt>
      <trkpt lat="45.84455" lon="4.81243">
        <ele>378.6</ele>
        <time>2013-11-30T17:08:13Z</time>
      </trkpt>
      <trkpt lat="45.84456" lon="4.81241">
        <ele>378.7</ele>
        <time>2013-11-30T17:08:14Z</time>
      </trkpt>
      <trkpt lat="45.84458" lon="4.81221">
        <ele>379.5</ele>
        <time>2013-11-30T17:08:23Z</time>
      </trkpt>
      <trkpt lat="45.84459" lon="4.81209">
        <ele>379.2</ele>
        <time>2013-11-30T17:08:27Z</time>
      </trkpt>
      <trkpt lat="45.84461" lon="4.81197">
        <ele>379.2</ele>
        <time>2013-11-30T17:08:32Z</time>
      </trkpt>
      <trkpt lat="45.84468" lon="4.81189">
        <ele>379.1</ele>
        <time>2013-11-30T17:08:39Z</time>
      </trkpt>
      <trkpt lat="45.84474" lon="4.81197">
        <ele>379.2</ele>
        <time>2013-11-30T17:08:53Z</time>
      </trkpt>
      <trkpt lat="45.84477" lon="4.81209">
        <ele>379.7</ele>
        <time>2013-11-30T17:09:04Z</time>
      </trkpt>
      <trkpt lat="45.84483" lon="4.81219">
        <ele>380.5</ele>
        <time>2013-11-30T17:09:14Z</time>
      </trkpt>
      <trkpt lat="45.84483" lon="4.8122">
        <ele>380.7</ele>
        <time>2013-11-30T17:09:15Z</time>
      </trkpt>
      <trkpt lat="45.84494" lon="4.81237">
        <ele>382</ele>
        <time>2013-11-30T17:09:28Z</time>
      </trkpt>
      <trkpt lat="45.84499" lon="4.81245">
        <ele>382.2</ele>
        <time>2013-11-30T17:09:34Z</time>
      </trkpt>
      <trkpt lat="45.84505" lon="4.81253">
        <ele>382.7</ele>
        <time>2013-11-30T17:09:40Z</time>
      </trkpt>
      <trkpt lat="45.84512" lon="4.8126">
        <ele>383.2</ele>
        <time>2013-11-30T17:09:45Z</time>
      </trkpt>
      <trkpt lat="45.8452" lon="4.81266">
        <ele>383.7</ele>
        <time>2013-11-30T17:09:50Z</time>
      </trkpt>
      <trkpt lat="45.84527" lon="4.81272">
        <ele>384.6</ele>
        <time>2013-11-30T17:09:55Z</time>
      </trkpt>
      <trkpt lat="45.84535" lon="4.81275">
        <ele>385.2</ele>
        <time>2013-11-30T17:10:00Z</time>
      </trkpt>
      <trkpt lat="45.84543" lon="4.8128">
        <ele>386.1</ele>
        <time>2013-11-30T17:10:04Z</time>
      </trkpt>
      <trkpt lat="45.84551" lon="4.81284">
        <ele>386.7</ele>
        <time>2013-11-30T17:10:08Z</time>
      </trkpt>
      <trkpt lat="45.84559" lon="4.81285">
        <ele>388</ele>
        <time>2013-11-30T17:10:13Z</time>
      </trkpt>
      <trkpt lat="45.84568" lon="4.81284">
        <ele>389.1</ele>
        <time>2013-11-30T17:10:20Z</time>
      </trkpt>
      <trkpt lat="45.84568" lon="4.81284">
        <ele>389.2</ele>
        <time>2013-11-30T17:10:21Z</time>
      </trkpt>
      <trkpt lat="45.84582" lon="4.81272">
        <ele>391.6</ele>
        <time>2013-11-30T17:10:37Z</time>
      </trkpt>
      <trkpt lat="45.84587" lon="4.81263">
        <ele>392.7</ele>
        <time>2013-11-30T17:10:44Z</time>
      </trkpt>
      <trkpt lat="45.84594" lon="4.81254">
        <ele>394.2</ele>
        <time>2013-11-30T17:10:52Z</time>
      </trkpt>
      <trkpt lat="45.84599" lon="4.81246">
        <ele>395.2</ele>
        <time>2013-11-30T17:10:58Z</time>
      </trkpt>
      <trkpt lat="45.84604" lon="4.81236">
        <ele>396.5</ele>
        <time>2013-11-30T17:11:05Z</time>
      </trkpt>
      <trkpt lat="45.84609" lon="4.81227">
        <ele>398.2</ele>
        <time>2013-11-30T17:11:12Z</time>
      </trkpt>
      <trkpt lat="45.84613" lon="4.81217">
        <ele>400.6</ele>
        <time>2013-11-30T17:11:18Z</time>
      </trkpt>
      <trkpt lat="45.84618" lon="4.81207">
        <ele>402.2</ele>
        <time>2013-11-30T17:11:24Z</time>
      </trkpt>
      <trkpt lat="45.84618" lon="4.81205">
        <ele>402.6</ele>
        <time>2013-11-30T17:11:25Z</time>
      </trkpt>
      <trkpt lat="45.84627" lon="4.81187">
        <ele>405</ele>
        <time>2013-11-30T17:11:37Z</time>
      </trkpt>
      <trkpt lat="45.84631" lon="4.81177">
        <ele>406</ele>
        <time>2013-11-30T17:11:44Z</time>
      </trkpt>
      <trkpt lat="45.84636" lon="4.81167">
        <ele>407.1</ele>
        <time>2013-11-30T17:11:51Z</time>
      </trkpt>
      <trkpt lat="45.8464" lon="4.81158">
        <ele>407.7</ele>
        <time>2013-11-30T17:11:57Z</time>
      </trkpt>
      <trkpt lat="45.84645" lon="4.8115">
        <ele>408.6</ele>
        <time>2013-11-30T17:12:03Z</time>
      </trkpt>
      <trkpt lat="45.8465" lon="4.81141">
        <ele>409.2</ele>
        <time>2013-11-30T17:12:09Z</time>
      </trkpt>
      <trkpt lat="45.84653" lon="4.81129">
        <ele>410</ele>
        <time>2013-11-30T17:12:18Z</time>
      </trkpt>
      <trkpt lat="45.84654" lon="4.81117">
        <ele>411.7</ele>
        <time>2013-11-30T17:12:25Z</time>
      </trkpt>
      <trkpt lat="45.84655" lon="4.81115">
        <ele>412.1</ele>
        <time>2013-11-30T17:12:26Z</time>
      </trkpt>
      <trkpt lat="45.84661" lon="4.81095">
        <ele>415.1</ele>
        <time>2013-11-30T17:12:38Z</time>
      </trkpt>
      <trkpt lat="45.84666" lon="4.81084">
        <ele>415.7</ele>
        <time>2013-11-30T17:12:44Z</time>
      </trkpt>
      <trkpt lat="45.84671" lon="4.81075">
        <ele>416.6</ele>
        <time>2013-11-30T17:12:52Z</time>
      </trkpt>
      <trkpt lat="45.84676" lon="4.81066">
        <ele>417.2</ele>
        <time>2013-11-30T17:13:00Z</time>
      </trkpt>
      <trkpt lat="45.84682" lon="4.81059">
        <ele>418.1</ele>
        <time>2013-11-30T17:13:05Z</time>
      </trkpt>
      <trkpt lat="45.84688" lon="4.81051">
        <ele>418.7</ele>
        <time>2013-11-30T17:13:11Z</time>
      </trkpt>
      <trkpt lat="45.84694" lon="4.81042">
        <ele>419.5</ele>
        <time>2013-11-30T17:13:18Z</time>
      </trkpt>
      <trkpt lat="45.84699" lon="4.81033">
        <ele>420.2</ele>
        <time>2013-11-30T17:13:24Z</time>
      </trkpt>
      <trkpt lat="45.84704" lon="4.81024">
        <ele>420.6</ele>
        <time>2013-11-30T17:13:30Z</time>
      </trkpt>
      <trkpt lat="45.84705" lon="4.81023">
        <ele>420.6</ele>
        <time>2013-11-30T17:13:31Z</time>
      </trkpt>
      <trkpt lat="45.84715" lon="4.81007">
        <ele>423.2</ele>
        <time>2013-11-30T17:13:43Z</time>
      </trkpt>
      <trkpt lat="45.84722" lon="4.81001">
        <ele>424.2</ele>
        <time>2013-11-30T17:13:47Z</time>
      </trkpt>
      <trkpt lat="45.84729" lon="4.80997">
        <ele>425.1</ele>
        <time>2013-11-30T17:13:51Z</time>
      </trkpt>
      <trkpt lat="45.84737" lon="4.80993">
        <ele>425.7</ele>
        <time>2013-11-30T17:13:57Z</time>
      </trkpt>
      <trkpt lat="45.84743" lon="4.80998">
        <ele>426.7</ele>
        <time>2013-11-30T17:14:03Z</time>
      </trkpt>
      <trkpt lat="45.84749" lon="4.81005">
        <ele>427.2</ele>
        <time>2013-11-30T17:14:08Z</time>
      </trkpt>
      <trkpt lat="45.84755" lon="4.81013">
        <ele>428.1</ele>
        <time>2013-11-30T17:14:13Z</time>
      </trkpt>
      <trkpt lat="45.84761" lon="4.81022">
        <ele>428.7</ele>
        <time>2013-11-30T17:14:18Z</time>
      </trkpt>
      <trkpt lat="45.84766" lon="4.81032">
        <ele>430.2</ele>
        <time>2013-11-30T17:14:25Z</time>
      </trkpt>
      <trkpt lat="45.84772" lon="4.81041">
        <ele>431.5</ele>
        <time>2013-11-30T17:14:33Z</time>
      </trkpt>
      <trkpt lat="45.84772" lon="4.81042">
        <ele>431.6</ele>
        <time>2013-11-30T17:14:34Z</time>
      </trkpt>
      <trkpt lat="45.84781" lon="4.81056">
        <ele>432.7</ele>
        <time>2013-11-30T17:14:44Z</time>
      </trkpt>
      <trkpt lat="45.84787" lon="4.81066">
        <ele>433.5</ele>
        <time>2013-11-30T17:14:48Z</time>
      </trkpt>
      <trkpt lat="45.84793" lon="4.81075">
        <ele>434.1</ele>
        <time>2013-11-30T17:14:52Z</time>
      </trkpt>
      <trkpt lat="45.84799" lon="4.81084">
        <ele>434.7</ele>
        <time>2013-11-30T17:14:56Z</time>
      </trkpt>
      <trkpt lat="45.84806" lon="4.81089">
        <ele>435.7</ele>
        <time>2013-11-30T17:15:00Z</time>
      </trkpt>
      <trkpt lat="45.84814" lon="4.81092">
        <ele>436.7</ele>
        <time>2013-11-30T17:15:04Z</time>
      </trkpt>
      <trkpt lat="45.84822" lon="4.81094">
        <ele>438.1</ele>
        <time>2013-11-30T17:15:09Z</time>
      </trkpt>
      <trkpt lat="45.84831" lon="4.81095">
        <ele>439.1</ele>
        <time>2013-11-30T17:15:13Z</time>
      </trkpt>
      <trkpt lat="45.8484" lon="4.81095">
        <ele>440.2</ele>
        <time>2013-11-30T17:15:19Z</time>
      </trkpt>
      <trkpt lat="45.84848" lon="4.81091">
        <ele>441.2</ele>
        <time>2013-11-30T17:15:27Z</time>
      </trkpt>
      <trkpt lat="45.84856" lon="4.81087">
        <ele>442</ele>
        <time>2013-11-30T17:15:48Z</time>
      </trkpt>
      <trkpt lat="45.84856" lon="4.81087">
        <ele>442</ele>
        <time>2013-11-30T17:15:49Z</time>
      </trkpt>
      <trkpt lat="45.84849" lon="4.81066">
        <ele>443.1</ele>
        <time>2013-11-30T17:16:18Z</time>
      </trkpt>
      <trkpt lat="45.84842" lon="4.81059">
        <ele>443.2</ele>
        <time>2013-11-30T17:16:21Z</time>
      </trkpt>
      <trkpt lat="45.84835" lon="4.8105">
        <ele>443.2</ele>
        <time>2013-11-30T17:16:25Z</time>
      </trkpt>
      <trkpt lat="45.84831" lon="4.81042">
        <ele>443.2</ele>
        <time>2013-11-30T17:16:28Z</time>
      </trkpt>
      <trkpt lat="45.84827" lon="4.81033">
        <ele>443.2</ele>
        <time>2013-11-30T17:16:31Z</time>
      </trkpt>
      <trkpt lat="45.84824" lon="4.81021">
        <ele>443.2</ele>
        <time>2013-11-30T17:16:35Z</time>
      </trkpt>
      <trkpt lat="45.84821" lon="4.8101">
        <ele>443.2</ele>
        <time>2013-11-30T17:16:39Z</time>
      </trkpt>
      <trkpt lat="45.84817" lon="4.80999">
        <ele>443.2</ele>
        <time>2013-11-30T17:16:43Z</time>
      </trkpt>
      <trkpt lat="45.84813" lon="4.80988">
        <ele>443.2</ele>
        <time>2013-11-30T17:16:47Z</time>
      </trkpt>
      <trkpt lat="45.8481" lon="4.80977">
        <ele>443.5</ele>
        <time>2013-11-30T17:16:51Z</time>
      </trkpt>
      <trkpt lat="45.8481" lon="4.80974">
        <ele>443.6</ele>
        <time>2013-11-30T17:16:52Z</time>
      </trkpt>
      <trkpt lat="45.84808" lon="4.80955">
        <ele>443.6</ele>
        <time>2013-11-30T17:16:59Z</time>
      </trkpt>
      <trkpt lat="45.84808" lon="4.80944">
        <ele>443.6</ele>
        <time>2013-11-30T17:17:03Z</time>
      </trkpt>
      <trkpt lat="45.84808" lon="4.80933">
        <ele>443.6</ele>
        <time>2013-11-30T17:17:07Z</time>
      </trkpt>
      <trkpt lat="45.84808" lon="4.80922">
        <ele>443.5</ele>
        <time>2013-11-30T17:17:11Z</time>
      </trkpt>
      <trkpt lat="45.84807" lon="4.80911">
        <ele>443.2</ele>
        <time>2013-11-30T17:17:15Z</time>
      </trkpt>
      <trkpt lat="45.84805" lon="4.809">
        <ele>443.2</ele>
        <time>2013-11-30T17:17:19Z</time>
      </trkpt>
      <trkpt lat="45.84803" lon="4.8089">
        <ele>443.2</ele>
        <time>2013-11-30T17:17:23Z</time>
      </trkpt>
      <trkpt lat="45.84801" lon="4.8088">
        <ele>443.2</ele>
        <time>2013-11-30T17:17:27Z</time>
      </trkpt>
      <trkpt lat="45.84798" lon="4.8087">
        <ele>443.2</ele>
        <time>2013-11-30T17:17:31Z</time>
      </trkpt>
      <trkpt lat="45.84795" lon="4.80859">
        <ele>443.1</ele>
        <time>2013-11-30T17:17:35Z</time>
      </trkpt>
      <trkpt lat="45.84792" lon="4.80849">
        <ele>443.1</ele>
        <time>2013-11-30T17:17:38Z</time>
      </trkpt>
      <trkpt lat="45.84788" lon="4.80838">
        <ele>443.2</ele>
        <time>2013-11-30T17:17:42Z</time>
      </trkpt>
      <trkpt lat="45.84781" lon="4.8083">
        <ele>443.2</ele>
        <time>2013-11-30T17:17:46Z</time>
      </trkpt>
      <trkpt lat="45.84773" lon="4.80826">
        <ele>443.2</ele>
        <time>2013-11-30T17:17:49Z</time>
      </trkpt>
      <trkpt lat="45.84765" lon="4.80823">
        <ele>443.5</ele>
        <time>2013-11-30T17:17:52Z</time>
      </trkpt>
      <trkpt lat="45.84763" lon="4.80822">
        <ele>443.5</ele>
        <time>2013-11-30T17:17:53Z</time>
      </trkpt>
      <trkpt lat="45.84751" lon="4.80821">
        <ele>443.7</ele>
        <time>2013-11-30T17:17:58Z</time>
      </trkpt>
      <trkpt lat="45.84743" lon="4.80821">
        <ele>443.7</ele>
        <time>2013-11-30T17:18:02Z</time>
      </trkpt>
      <trkpt lat="45.84735" lon="4.80822">
        <ele>444</ele>
        <time>2013-11-30T17:18:07Z</time>
      </trkpt>
      <trkpt lat="45.84727" lon="4.80824">
        <ele>443.7</ele>
        <time>2013-11-30T17:18:12Z</time>
      </trkpt>
      <trkpt lat="45.8472" lon="4.80828">
        <ele>443.7</ele>
        <time>2013-11-30T17:18:16Z</time>
      </trkpt>
      <trkpt lat="45.84712" lon="4.80831">
        <ele>443.7</ele>
        <time>2013-11-30T17:18:21Z</time>
      </trkpt>
      <trkpt lat="45.84705" lon="4.80835">
        <ele>443.7</ele>
        <time>2013-11-30T17:18:25Z</time>
      </trkpt>
      <trkpt lat="45.84696" lon="4.8084">
        <ele>443.7</ele>
        <time>2013-11-30T17:18:30Z</time>
      </trkpt>
      <trkpt lat="45.84688" lon="4.80843">
        <ele>443.7</ele>
        <time>2013-11-30T17:18:35Z</time>
      </trkpt>
      <trkpt lat="45.84681" lon="4.80844">
        <ele>443.7</ele>
        <time>2013-11-30T17:18:39Z</time>
      </trkpt>
      <trkpt lat="45.84673" lon="4.80843">
        <ele>443.7</ele>
        <time>2013-11-30T17:18:43Z</time>
      </trkpt>
      <trkpt lat="45.84665" lon="4.80845">
        <ele>444</ele>
        <time>2013-11-30T17:18:48Z</time>
      </trkpt>
      <trkpt lat="45.84656" lon="4.80845">
        <ele>444</ele>
        <time>2013-11-30T17:18:53Z</time>
      </trkpt>
      <trkpt lat="45.84654" lon="4.80844">
        <ele>444</ele>
        <time>2013-11-30T17:18:54Z</time>
      </trkpt>
      <trkpt lat="45.84642" lon="4.80838">
        <ele>444.1</ele>
        <time>2013-11-30T17:19:01Z</time>
      </trkpt>
      <trkpt lat="45.84635" lon="4.80832">
        <ele>444.2</ele>
        <time>2013-11-30T17:19:05Z</time>
      </trkpt>
      <trkpt lat="45.84628" lon="4.80826">
        <ele>444.2</ele>
        <time>2013-11-30T17:19:10Z</time>
      </trkpt>
      <trkpt lat="45.84621" lon="4.8082">
        <ele>444.2</ele>
        <time>2013-11-30T17:19:15Z</time>
      </trkpt>
      <trkpt lat="45.84614" lon="4.80813">
        <ele>444.6</ele>
        <time>2013-11-30T17:19:20Z</time>
      </trkpt>
      <trkpt lat="45.84609" lon="4.80806">
        <ele>444.7</ele>
        <time>2013-11-30T17:19:24Z</time>
      </trkpt>
      <trkpt lat="45.84603" lon="4.80796">
        <ele>444.7</ele>
        <time>2013-11-30T17:19:29Z</time>
      </trkpt>
      <trkpt lat="45.84598" lon="4.80787">
        <ele>445.2</ele>
        <time>2013-11-30T17:19:33Z</time>
      </trkpt>
      <trkpt lat="45.84593" lon="4.80778">
        <ele>445.2</ele>
        <time>2013-11-30T17:19:37Z</time>
      </trkpt>
      <trkpt lat="45.84588" lon="4.80769">
        <ele>445.6</ele>
        <time>2013-11-30T17:19:42Z</time>
      </trkpt>
      <trkpt lat="45.84584" lon="4.80761">
        <ele>445.7</ele>
        <time>2013-11-30T17:19:47Z</time>
      </trkpt>
      <trkpt lat="45.84579" lon="4.80751">
        <ele>446.1</ele>
        <time>2013-11-30T17:19:51Z</time>
      </trkpt>
      <trkpt lat="45.84575" lon="4.80741">
        <ele>446.2</ele>
        <time>2013-11-30T17:19:55Z</time>
      </trkpt>
      <trkpt lat="45.84574" lon="4.80739">
        <ele>446.2</ele>
        <time>2013-11-30T17:19:56Z</time>
      </trkpt>
      <trkpt lat="45.84568" lon="4.80719">
        <ele>446.7</ele>
        <time>2013-11-30T17:20:03Z</time>
      </trkpt>
      <trkpt lat="45.84566" lon="4.80709">
        <ele>446.7</ele>
        <time>2013-11-30T17:20:06Z</time>
      </trkpt>
      <trkpt lat="45.84565" lon="4.80698">
        <ele>447.2</ele>
        <time>2013-11-30T17:20:09Z</time>
      </trkpt>
      <trkpt lat="45.84563" lon="4.80685">
        <ele>447.6</ele>
        <time>2013-11-30T17:20:13Z</time>
      </trkpt>
      <trkpt lat="45.84563" lon="4.80673">
        <ele>448.1</ele>
        <time>2013-11-30T17:20:18Z</time>
      </trkpt>
      <trkpt lat="45.84564" lon="4.80662">
        <ele>448.2</ele>
        <time>2013-11-30T17:20:23Z</time>
      </trkpt>
      <trkpt lat="45.84564" lon="4.80649">
        <ele>448.7</ele>
        <time>2013-11-30T17:20:29Z</time>
      </trkpt>
      <trkpt lat="45.84562" lon="4.80637">
        <ele>449</ele>
        <time>2013-11-30T17:20:34Z</time>
      </trkpt>
      <trkpt lat="45.8456" lon="4.80628">
        <ele>449.2</ele>
        <time>2013-11-30T17:20:37Z</time>
      </trkpt>
      <trkpt lat="45.84556" lon="4.80619">
        <ele>449.5</ele>
        <time>2013-11-30T17:20:40Z</time>
      </trkpt>
      <trkpt lat="45.84552" lon="4.8061">
        <ele>449.7</ele>
        <time>2013-11-30T17:20:43Z</time>
      </trkpt>
      <trkpt lat="45.84547" lon="4.80599">
        <ele>450.1</ele>
        <time>2013-11-30T17:20:48Z</time>
      </trkpt>
      <trkpt lat="45.84543" lon="4.80588">
        <ele>453.2</ele>
        <time>2013-11-30T17:21:54Z</time>
      </trkpt>
      <trkpt lat="45.84543" lon="4.80586">
        <ele>453.2</ele>
        <time>2013-11-30T17:21:55Z</time>
      </trkpt>
      <trkpt lat="45.84549" lon="4.80566">
        <ele>456.1</ele>
        <time>2013-11-30T17:22:11Z</time>
      </trkpt>
      <trkpt lat="45.84554" lon="4.80557">
        <ele>457.1</ele>
        <time>2013-11-30T17:22:19Z</time>
      </trkpt>
      <trkpt lat="45.84563" lon="4.80553">
        <ele>457.7</ele>
        <time>2013-11-30T17:22:28Z</time>
      </trkpt>
      <trkpt lat="45.8457" lon="4.80559">
        <ele>458.2</ele>
        <time>2013-11-30T17:22:36Z</time>
      </trkpt>
      <trkpt lat="45.84573" lon="4.8057">
        <ele>458.7</ele>
        <time>2013-11-30T17:22:45Z</time>
      </trkpt>
      <trkpt lat="45.84573" lon="4.80583">
        <ele>459.5</ele>
        <time>2013-11-30T17:22:53Z</time>
      </trkpt>
      <trkpt lat="45.84577" lon="4.80594">
        <ele>460.2</ele>
        <time>2013-11-30T17:22:59Z</time>
      </trkpt>
      <trkpt lat="45.84578" lon="4.80596">
        <ele>460.2</ele>
        <time>2013-11-30T17:23:00Z</time>
      </trkpt>
      <trkpt lat="45.84586" lon="4.8061">
        <ele>460.7</ele>
        <time>2013-11-30T17:23:07Z</time>
      </trkpt>
      <trkpt lat="45.84593" lon="4.80618">
        <ele>461.1</ele>
        <time>2013-11-30T17:23:12Z</time>
      </trkpt>
      <trkpt lat="45.84601" lon="4.80622">
        <ele>461.1</ele>
        <time>2013-11-30T17:23:17Z</time>
      </trkpt>
      <trkpt lat="45.84609" lon="4.80624">
        <ele>461.2</ele>
        <time>2013-11-30T17:23:22Z</time>
      </trkpt>
      <trkpt lat="45.84618" lon="4.80624">
        <ele>461.2</ele>
        <time>2013-11-30T17:23:28Z</time>
      </trkpt>
      <trkpt lat="45.84626" lon="4.80624">
        <ele>461.7</ele>
        <time>2013-11-30T17:23:33Z</time>
      </trkpt>
      <trkpt lat="45.84633" lon="4.80625">
        <ele>462</ele>
        <time>2013-11-30T17:23:38Z</time>
      </trkpt>
      <trkpt lat="45.84641" lon="4.80627">
        <ele>462.2</ele>
        <time>2013-11-30T17:23:43Z</time>
      </trkpt>
      <trkpt lat="45.84648" lon="4.80629">
        <ele>462.6</ele>
        <time>2013-11-30T17:23:46Z</time>
      </trkpt>
      <trkpt lat="45.84655" lon="4.8063">
        <ele>462.7</ele>
        <time>2013-11-30T17:23:49Z</time>
      </trkpt>
      <trkpt lat="45.84663" lon="4.80632">
        <ele>463.2</ele>
        <time>2013-11-30T17:23:52Z</time>
      </trkpt>
      <trkpt lat="45.84669" lon="4.80633">
        <ele>463.2</ele>
        <time>2013-11-30T17:23:55Z</time>
      </trkpt>
      <trkpt lat="45.84677" lon="4.80633">
        <ele>463.6</ele>
        <time>2013-11-30T17:23:58Z</time>
      </trkpt>
      <trkpt lat="45.84685" lon="4.80635">
        <ele>463.7</ele>
        <time>2013-11-30T17:24:01Z</time>
      </trkpt>
      <trkpt lat="45.84687" lon="4.80635">
        <ele>463.7</ele>
        <time>2013-11-30T17:24:02Z</time>
      </trkpt>
      <trkpt lat="45.84701" lon="4.80636">
        <ele>464.1</ele>
        <time>2013-11-30T17:24:07Z</time>
      </trkpt>
      <trkpt lat="45.84708" lon="4.80637">
        <ele>464.2</ele>
        <time>2013-11-30T17:24:10Z</time>
      </trkpt>
      <trkpt lat="45.84715" lon="4.80636">
        <ele>464.6</ele>
        <time>2013-11-30T17:24:13Z</time>
      </trkpt>
      <trkpt lat="45.84724" lon="4.80635">
        <ele>464.7</ele>
        <time>2013-11-30T17:24:17Z</time>
      </trkpt>
      <trkpt lat="45.84731" lon="4.80632">
        <ele>465.2</ele>
        <time>2013-11-30T17:24:21Z</time>
      </trkpt>
      <trkpt lat="45.84738" lon="4.80629">
        <ele>465.5</ele>
        <time>2013-11-30T17:24:25Z</time>
      </trkpt>
      <trkpt lat="45.84747" lon="4.80628">
        <ele>465.7</ele>
        <time>2013-11-30T17:24:30Z</time>
      </trkpt>
      <trkpt lat="45.84756" lon="4.80627">
        <ele>465.7</ele>
        <time>2013-11-30T17:24:34Z</time>
      </trkpt>
      <trkpt lat="45.84763" lon="4.80626">
        <ele>465.7</ele>
        <time>2013-11-30T17:24:38Z</time>
      </trkpt>
      <trkpt lat="45.84772" lon="4.80626">
        <ele>465.7</ele>
        <time>2013-11-30T17:24:44Z</time>
      </trkpt>
      <trkpt lat="45.8478" lon="4.80629">
        <ele>466.2</ele>
        <time>2013-11-30T17:25:07Z</time>
      </trkpt>
      <trkpt lat="45.84782" lon="4.8063">
        <ele>466.2</ele>
        <time>2013-11-30T17:25:08Z</time>
      </trkpt>
      <trkpt lat="45.84796" lon="4.80633">
        <ele>466.7</ele>
        <time>2013-11-30T17:25:15Z</time>
      </trkpt>
      <trkpt lat="45.84804" lon="4.80634">
        <ele>467.2</ele>
        <time>2013-11-30T17:25:19Z</time>
      </trkpt>
      <trkpt lat="45.84812" lon="4.80635">
        <ele>467.5</ele>
        <time>2013-11-30T17:25:23Z</time>
      </trkpt>
      <trkpt lat="45.8482" lon="4.80636">
        <ele>467.7</ele>
        <time>2013-11-30T17:25:27Z</time>
      </trkpt>
      <trkpt lat="45.84828" lon="4.80638">
        <ele>468.1</ele>
        <time>2013-11-30T17:25:31Z</time>
      </trkpt>
      <trkpt lat="45.84836" lon="4.8064">
        <ele>468.2</ele>
        <time>2013-11-30T17:25:35Z</time>
      </trkpt>
      <trkpt lat="45.84843" lon="4.80642">
        <ele>468.7</ele>
        <time>2013-11-30T17:25:39Z</time>
      </trkpt>
      <trkpt lat="45.84851" lon="4.80643">
        <ele>469.2</ele>
        <time>2013-11-30T17:25:43Z</time>
      </trkpt>
      <trkpt lat="45.84858" lon="4.80644">
        <ele>469.7</ele>
        <time>2013-11-30T17:25:46Z</time>
      </trkpt>
      <trkpt lat="45.84867" lon="4.80646">
        <ele>470.1</ele>
        <time>2013-11-30T17:25:49Z</time>
      </trkpt>
      <trkpt lat="45.84874" lon="4.80647">
        <ele>470.2</ele>
        <time>2013-11-30T17:25:52Z</time>
      </trkpt>
      <trkpt lat="45.84881" lon="4.80648">
        <ele>470.5</ele>
        <time>2013-11-30T17:25:55Z</time>
      </trkpt>
      <trkpt lat="45.8489" lon="4.80651">
        <ele>470.7</ele>
        <time>2013-11-30T17:25:59Z</time>
      </trkpt>
      <trkpt lat="45.84898" lon="4.80652">
        <ele>471.1</ele>
        <time>2013-11-30T17:26:03Z</time>
      </trkpt>
      <trkpt lat="45.84907" lon="4.80653">
        <ele>471.2</ele>
        <time>2013-11-30T17:26:07Z</time>
      </trkpt>
      <trkpt lat="45.84916" lon="4.80654">
        <ele>471.7</ele>
        <time>2013-11-30T17:26:10Z</time>
      </trkpt>
      <trkpt lat="45.84919" lon="4.80654">
        <ele>471.7</ele>
        <time>2013-11-30T17:26:11Z</time>
      </trkpt>
      <trkpt lat="45.84933" lon="4.80658">
        <ele>472</ele>
        <time>2013-11-30T17:26:16Z</time>
      </trkpt>
      <trkpt lat="45.84942" lon="4.8066">
        <ele>472.2</ele>
        <time>2013-11-30T17:26:20Z</time>
      </trkpt>
      <trkpt lat="45.84949" lon="4.80653">
        <ele>473.5</ele>
        <time>2013-11-30T17:26:51Z</time>
      </trkpt>
      <trkpt lat="45.84943" lon="4.80644">
        <ele>474.6</ele>
        <time>2013-11-30T17:27:02Z</time>
      </trkpt>
      <trkpt lat="45.84937" lon="4.80636">
        <ele>475.1</ele>
        <time>2013-11-30T17:27:09Z</time>
      </trkpt>
      <trkpt lat="45.8493" lon="4.8063">
        <ele>475.5</ele>
        <time>2013-11-30T17:27:14Z</time>
      </trkpt>
      <trkpt lat="45.84929" lon="4.80629">
        <ele>475.6</ele>
        <time>2013-11-30T17:27:15Z</time>
      </trkpt>
      <trkpt lat="45.84916" lon="4.80618">
        <ele>476.5</ele>
        <time>2013-11-30T17:27:26Z</time>
      </trkpt>
      <trkpt lat="45.8491" lon="4.8061">
        <ele>476.7</ele>
        <time>2013-11-30T17:27:31Z</time>
      </trkpt>
      <trkpt lat="45.84905" lon="4.80604">
        <ele>476.7</ele>
        <time>2013-11-30T17:27:33Z</time>
      </trkpt>
      <trkpt lat="45.849" lon="4.80598">
        <ele>476.7</ele>
        <time>2013-11-30T17:27:35Z</time>
      </trkpt>
      <trkpt lat="45.84894" lon="4.80593">
        <ele>476.7</ele>
        <time>2013-11-30T17:27:37Z</time>
      </trkpt>
      <trkpt lat="45.8489" lon="4.80587">
        <ele>477.1</ele>
        <time>2013-11-30T17:27:39Z</time>
      </trkpt>
      <trkpt lat="45.84885" lon="4.80581">
        <ele>477.2</ele>
        <time>2013-11-30T17:27:41Z</time>
      </trkpt>
      <trkpt lat="45.84879" lon="4.80572">
        <ele>477.7</ele>
        <time>2013-11-30T17:27:44Z</time>
      </trkpt>
      <trkpt lat="45.84874" lon="4.80562">
        <ele>478.2</ele>
        <time>2013-11-30T17:27:47Z</time>
      </trkpt>
      <trkpt lat="45.84869" lon="4.80552">
        <ele>478.6</ele>
        <time>2013-11-30T17:27:50Z</time>
      </trkpt>
      <trkpt lat="45.84864" lon="4.80543">
        <ele>479</ele>
        <time>2013-11-30T17:27:53Z</time>
      </trkpt>
      <trkpt lat="45.84857" lon="4.80536">
        <ele>479.6</ele>
        <time>2013-11-30T17:27:57Z</time>
      </trkpt>
      <trkpt lat="45.84851" lon="4.8053">
        <ele>479.7</ele>
        <time>2013-11-30T17:28:01Z</time>
      </trkpt>
      <trkpt lat="45.84845" lon="4.80522">
        <ele>480.1</ele>
        <time>2013-11-30T17:28:05Z</time>
      </trkpt>
      <trkpt lat="45.84838" lon="4.80514">
        <ele>480.2</ele>
        <time>2013-11-30T17:28:09Z</time>
      </trkpt>
      <trkpt lat="45.84831" lon="4.80506">
        <ele>480.6</ele>
        <time>2013-11-30T17:28:13Z</time>
      </trkpt>
      <trkpt lat="45.84824" lon="4.80499">
        <ele>480.7</ele>
        <time>2013-11-30T17:28:17Z</time>
      </trkpt>
      <trkpt lat="45.84822" lon="4.80497">
        <ele>481</ele>
        <time>2013-11-30T17:28:18Z</time>
      </trkpt>
      <trkpt lat="45.8481" lon="4.80485">
        <ele>481.5</ele>
        <time>2013-11-30T17:28:25Z</time>
      </trkpt>
      <trkpt lat="45.84802" lon="4.80479">
        <ele>481.7</ele>
        <time>2013-11-30T17:28:29Z</time>
      </trkpt>
      <trkpt lat="45.84795" lon="4.80474">
        <ele>482.2</ele>
        <time>2013-11-30T17:28:33Z</time>
      </trkpt>
      <trkpt lat="45.84789" lon="4.80468">
        <ele>482.5</ele>
        <time>2013-11-30T17:28:37Z</time>
      </trkpt>
      <trkpt lat="45.84782" lon="4.80459">
        <ele>483</ele>
        <time>2013-11-30T17:28:42Z</time>
      </trkpt>
      <trkpt lat="45.84776" lon="4.80451">
        <ele>483.2</ele>
        <time>2013-11-30T17:28:47Z</time>
      </trkpt>
      <trkpt lat="45.84769" lon="4.80442">
        <ele>484.1</ele>
        <time>2013-11-30T17:28:52Z</time>
      </trkpt>
      <trkpt lat="45.84764" lon="4.80435">
        <ele>484.7</ele>
        <time>2013-11-30T17:28:55Z</time>
      </trkpt>
      <trkpt lat="45.84759" lon="4.80427">
        <ele>485.6</ele>
        <time>2013-11-30T17:28:58Z</time>
      </trkpt>
      <trkpt lat="45.8475" lon="4.80425">
        <ele>488.1</ele>
        <time>2013-11-30T17:29:07Z</time>
      </trkpt>
      <trkpt lat="45.84745" lon="4.80417">
        <ele>491.5</ele>
        <time>2013-11-30T17:29:26Z</time>
      </trkpt>
      <trkpt lat="45.84744" lon="4.80415">
        <ele>491.7</ele>
        <time>2013-11-30T17:29:27Z</time>
      </trkpt>
      <trkpt lat="45.84733" lon="4.80401">
        <ele>493.2</ele>
        <time>2013-11-30T17:29:36Z</time>
      </trkpt>
      <trkpt lat="45.84727" lon="4.80393">
        <ele>493.7</ele>
        <time>2013-11-30T17:29:41Z</time>
      </trkpt>
      <trkpt lat="45.84721" lon="4.80386">
        <ele>494.2</ele>
        <time>2013-11-30T17:29:47Z</time>
      </trkpt>
      <trkpt lat="45.84715" lon="4.80377">
        <ele>494.2</ele>
        <time>2013-11-30T17:29:53Z</time>
      </trkpt>
      <trkpt lat="45.8471" lon="4.80367">
        <ele>494.6</ele>
        <time>2013-11-30T17:29:58Z</time>
      </trkpt>
      <trkpt lat="45.84703" lon="4.80358">
        <ele>494.7</ele>
        <time>2013-11-30T17:30:03Z</time>
      </trkpt>
      <trkpt lat="45.84698" lon="4.80351">
        <ele>494.7</ele>
        <time>2013-11-30T17:30:07Z</time>
      </trkpt>
      <trkpt lat="45.84692" lon="4.80343">
        <ele>495.1</ele>
        <time>2013-11-30T17:30:12Z</time>
      </trkpt>
      <trkpt lat="45.84686" lon="4.80336">
        <ele>495.2</ele>
        <time>2013-11-30T17:30:17Z</time>
      </trkpt>
      <trkpt lat="45.84681" lon="4.80329">
        <ele>495.6</ele>
        <time>2013-11-30T17:30:21Z</time>
      </trkpt>
      <trkpt lat="45.84676" lon="4.8032">
        <ele>495.7</ele>
        <time>2013-11-30T17:30:25Z</time>
      </trkpt>
      <trkpt lat="45.8467" lon="4.80313">
        <ele>496.2</ele>
        <time>2013-11-30T17:30:29Z</time>
      </trkpt>
      <trkpt lat="45.84669" lon="4.80311">
        <ele>496.2</ele>
        <time>2013-11-30T17:30:30Z</time>
      </trkpt>
      <trkpt lat="45.84657" lon="4.80303">
        <ele>496.7</ele>
        <time>2013-11-30T17:30:36Z</time>
      </trkpt>
      <trkpt lat="45.84649" lon="4.803">
        <ele>497.1</ele>
        <time>2013-11-30T17:30:39Z</time>
      </trkpt>
      <trkpt lat="45.84642" lon="4.80297">
        <ele>497.2</ele>
        <time>2013-11-30T17:30:42Z</time>
      </trkpt>
      <trkpt lat="45.84635" lon="4.80294">
        <ele>497.5</ele>
        <time>2013-11-30T17:30:45Z</time>
      </trkpt>
      <trkpt lat="45.84628" lon="4.80294">
        <ele>497.7</ele>
        <time>2013-11-30T17:30:48Z</time>
      </trkpt>
      <trkpt lat="45.84621" lon="4.80293">
        <ele>497.7</ele>
        <time>2013-11-30T17:30:51Z</time>
      </trkpt>
      <trkpt lat="45.84614" lon="4.8029">
        <ele>498.2</ele>
        <time>2013-11-30T17:30:54Z</time>
      </trkpt>
      <trkpt lat="45.84606" lon="4.80285">
        <ele>498.7</ele>
        <time>2013-11-30T17:30:57Z</time>
      </trkpt>
      <trkpt lat="45.84598" lon="4.80282">
        <ele>499.6</ele>
        <time>2013-11-30T17:31:00Z</time>
      </trkpt>
      <trkpt lat="45.8459" lon="4.80279">
        <ele>500.2</ele>
        <time>2013-11-30T17:31:03Z</time>
      </trkpt>
      <trkpt lat="45.84583" lon="4.80277">
        <ele>501</ele>
        <time>2013-11-30T17:31:06Z</time>
      </trkpt>
      <trkpt lat="45.84576" lon="4.80276">
        <ele>501.7</ele>
        <time>2013-11-30T17:31:09Z</time>
      </trkpt>
      <trkpt lat="45.84569" lon="4.80275">
        <ele>502.6</ele>
        <time>2013-11-30T17:31:12Z</time>
      </trkpt>
      <trkpt lat="45.84562" lon="4.80276">
        <ele>503.2</ele>
        <time>2013-11-30T17:31:15Z</time>
      </trkpt>
      <trkpt lat="45.84553" lon="4.80275">
        <ele>504.2</ele>
        <time>2013-11-30T17:31:19Z</time>
      </trkpt>
      <trkpt lat="45.84545" lon="4.80272">
        <ele>505.2</ele>
        <time>2013-11-30T17:31:23Z</time>
      </trkpt>
      <trkpt lat="45.84538" lon="4.80267">
        <ele>506.5</ele>
        <time>2013-11-30T17:31:27Z</time>
      </trkpt>
      <trkpt lat="45.84531" lon="4.8026">
        <ele>507.7</ele>
        <time>2013-11-30T17:31:31Z</time>
      </trkpt>
      <trkpt lat="45.84529" lon="4.80259">
        <ele>508.1</ele>
        <time>2013-11-30T17:31:32Z</time>
      </trkpt>
      <trkpt lat="45.84517" lon="4.80248">
        <ele>510</ele>
        <time>2013-11-30T17:31:37Z</time>
      </trkpt>
      <trkpt lat="45.8451" lon="4.80241">
        <ele>511.2</ele>
        <time>2013-11-30T17:31:40Z</time>
      </trkpt>
      <trkpt lat="45.84504" lon="4.80236">
        <ele>512.4</ele>
        <time>2013-11-30T17:31:43Z</time>
      </trkpt>
      <trkpt lat="45.84497" lon="4.80229">
        <ele>513.7</ele>
        <time>2013-11-30T17:31:47Z</time>
      </trkpt>
      <trkpt lat="45.84491" lon="4.80223">
        <ele>515</ele>
        <time>2013-11-30T17:31:51Z</time>
      </trkpt>
      <trkpt lat="45.84486" lon="4.80215">
        <ele>516.2</ele>
        <time>2013-11-30T17:31:55Z</time>
      </trkpt>
      <trkpt lat="45.84482" lon="4.80206">
        <ele>517.4</ele>
        <time>2013-11-30T17:31:59Z</time>
      </trkpt>
      <trkpt lat="45.84478" lon="4.80197">
        <ele>518.5</ele>
        <time>2013-11-30T17:32:03Z</time>
      </trkpt>
      <trkpt lat="45.84474" lon="4.80188">
        <ele>519.5</ele>
        <time>2013-11-30T17:32:07Z</time>
      </trkpt>
      <trkpt lat="45.84467" lon="4.80179">
        <ele>520.5</ele>
        <time>2013-11-30T17:32:12Z</time>
      </trkpt>
      <trkpt lat="45.8446" lon="4.80171">
        <ele>523.5</ele>
        <time>2013-11-30T17:32:27Z</time>
      </trkpt>
      <trkpt lat="45.84454" lon="4.80163">
        <ele>534.5</ele>
        <time>2013-11-30T17:34:24Z</time>
      </trkpt>
      <trkpt lat="45.84454" lon="4.80162">
        <ele>535</ele>
        <time>2013-11-30T17:34:25Z</time>
      </trkpt>
      <trkpt lat="45.84449" lon="4.80142">
        <ele>538.2</ele>
        <time>2013-11-30T17:34:36Z</time>
      </trkpt>
      <trkpt lat="45.84446" lon="4.80131">
        <ele>539.5</ele>
        <time>2013-11-30T17:34:42Z</time>
      </trkpt>
      <trkpt lat="45.84442" lon="4.80121">
        <ele>540.7</ele>
        <time>2013-11-30T17:34:49Z</time>
      </trkpt>
      <trkpt lat="45.8444" lon="4.8011">
        <ele>541.4</ele>
        <time>2013-11-30T17:34:55Z</time>
      </trkpt>
      <trkpt lat="45.84437" lon="4.80099">
        <ele>542</ele>
        <time>2013-11-30T17:35:01Z</time>
      </trkpt>
      <trkpt lat="45.84433" lon="4.80088">
        <ele>542.7</ele>
        <time>2013-11-30T17:35:08Z</time>
      </trkpt>
      <trkpt lat="45.8443" lon="4.80078">
        <ele>543.4</ele>
        <time>2013-11-30T17:35:15Z</time>
      </trkpt>
      <trkpt lat="45.84427" lon="4.80067">
        <ele>544</ele>
        <time>2013-11-30T17:35:22Z</time>
      </trkpt>
      <trkpt lat="45.84422" lon="4.80057">
        <ele>544.7</ele>
        <time>2013-11-30T17:35:30Z</time>
      </trkpt>
      <trkpt lat="45.84421" lon="4.80055">
        <ele>544.9</ele>
        <time>2013-11-30T17:35:31Z</time>
      </trkpt>
      <trkpt lat="45.84409" lon="4.80042">
        <ele>545.5</ele>
        <time>2013-11-30T17:35:43Z</time>
      </trkpt>
      <trkpt lat="45.84401" lon="4.80039">
        <ele>545.9</ele>
        <time>2013-11-30T17:35:48Z</time>
      </trkpt>
      <trkpt lat="45.84393" lon="4.80036">
        <ele>546.2</ele>
        <time>2013-11-30T17:35:54Z</time>
      </trkpt>
      <trkpt lat="45.84385" lon="4.80034">
        <ele>546.7</ele>
        <time>2013-11-30T17:36:01Z</time>
      </trkpt>
      <trkpt lat="45.84379" lon="4.80027">
        <ele>547</ele>
        <time>2013-11-30T17:36:07Z</time>
      </trkpt>
      <trkpt lat="45.8437" lon="4.80028">
        <ele>549.9</ele>
        <time>2013-11-30T17:36:37Z</time>
      </trkpt>
      <trkpt lat="45.8437" lon="4.80027">
        <ele>550</ele>
        <time>2013-11-30T17:36:38Z</time>
      </trkpt>
      <trkpt lat="45.84368" lon="4.80004">
        <ele>550.7</ele>
        <time>2013-11-30T17:36:53Z</time>
      </trkpt>
      <trkpt lat="45.84367" lon="4.79992">
        <ele>551</ele>
        <time>2013-11-30T17:37:01Z</time>
      </trkpt>
      <trkpt lat="45.84367" lon="4.79979">
        <ele>551</ele>
        <time>2013-11-30T17:37:10Z</time>
      </trkpt>
      <trkpt lat="45.84365" lon="4.79968">
        <ele>551</ele>
        <time>2013-11-30T17:37:15Z</time>
      </trkpt>
      <trkpt lat="45.84359" lon="4.7996">
        <ele>551.2</ele>
        <time>2013-11-30T17:37:21Z</time>
      </trkpt>
      <trkpt lat="45.84352" lon="4.79955">
        <ele>551.4</ele>
        <time>2013-11-30T17:37:26Z</time>
      </trkpt>
      <trkpt lat="45.84344" lon="4.7995">
        <ele>551.5</ele>
        <time>2013-11-30T17:37:31Z</time>
      </trkpt>
      <trkpt lat="45.84337" lon="4.79947">
        <ele>551.5</ele>
        <time>2013-11-30T17:37:35Z</time>
      </trkpt>
      <trkpt lat="45.8433" lon="4.79943">
        <ele>551.7</ele>
        <time>2013-11-30T17:37:39Z</time>
      </trkpt>
      <trkpt lat="45.84328" lon="4.79942">
        <ele>551.7</ele>
        <time>2013-11-30T17:37:40Z</time>
      </trkpt>
      <trkpt lat="45.84316" lon="4.79934">
        <ele>551.9</ele>
        <time>2013-11-30T17:37:47Z</time>
      </trkpt>
      <trkpt lat="45.84309" lon="4.79928">
        <ele>552</ele>
        <time>2013-11-30T17:37:51Z</time>
      </trkpt>
      <trkpt lat="45.84303" lon="4.79922">
        <ele>552.2</ele>
        <time>2013-11-30T17:37:55Z</time>
      </trkpt>
      <trkpt lat="45.84297" lon="4.79915">
        <ele>552.5</ele>
        <time>2013-11-30T17:37:59Z</time>
      </trkpt>
      <trkpt lat="45.84291" lon="4.79908">
        <ele>552.7</ele>
        <time>2013-11-30T17:38:03Z</time>
      </trkpt>
      <trkpt lat="45.84284" lon="4.79901">
        <ele>553</ele>
        <time>2013-11-30T17:38:07Z</time>
      </trkpt>
      <trkpt lat="45.84278" lon="4.79894">
        <ele>553.2</ele>
        <time>2013-11-30T17:38:11Z</time>
      </trkpt>
      <trkpt lat="45.84272" lon="4.79888">
        <ele>553.4</ele>
        <time>2013-11-30T17:38:15Z</time>
      </trkpt>
      <trkpt lat="45.84266" lon="4.79882">
        <ele>553.5</ele>
        <time>2013-11-30T17:38:19Z</time>
      </trkpt>
      <trkpt lat="45.8426" lon="4.79875">
        <ele>553.9</ele>
        <time>2013-11-30T17:38:23Z</time>
      </trkpt>
      <trkpt lat="45.84255" lon="4.79866">
        <ele>554.2</ele>
        <time>2013-11-30T17:38:27Z</time>
      </trkpt>
      <trkpt lat="45.8425" lon="4.79858">
        <ele>554.5</ele>
        <time>2013-11-30T17:38:30Z</time>
      </trkpt>
      <trkpt lat="45.84247" lon="4.79849">
        <ele>554.7</ele>
        <time>2013-11-30T17:38:33Z</time>
      </trkpt>
      <trkpt lat="45.84244" lon="4.7984">
        <ele>555</ele>
        <time>2013-11-30T17:38:36Z</time>
      </trkpt>
      <trkpt lat="45.8424" lon="4.79828">
        <ele>555.4</ele>
        <time>2013-11-30T17:38:40Z</time>
      </trkpt>
      <trkpt lat="45.84239" lon="4.79825">
        <ele>555.5</ele>
        <time>2013-11-30T17:38:41Z</time>
      </trkpt>
      <trkpt lat="45.8423" lon="4.79809">
        <ele>556.2</ele>
        <time>2013-11-30T17:38:51Z</time>
      </trkpt>
      <trkpt lat="45.84222" lon="4.79805">
        <ele>558.5</ele>
        <time>2013-11-30T17:39:07Z</time>
      </trkpt>
      <trkpt lat="45.84215" lon="4.79799">
        <ele>571</ele>
        <time>2013-11-30T17:41:50Z</time>
      </trkpt>
      <trkpt lat="45.84214" lon="4.79798">
        <ele>571.5</ele>
        <time>2013-11-30T17:41:51Z</time>
      </trkpt>
      <trkpt lat="45.842" lon="4.7979">
        <ele>575.7</ele>
        <time>2013-11-30T17:42:03Z</time>
      </trkpt>
      <trkpt lat="45.84191" lon="4.79787">
        <ele>577.7</ele>
        <time>2013-11-30T17:42:09Z</time>
      </trkpt>
      <trkpt lat="45.84184" lon="4.79785">
        <ele>579</ele>
        <time>2013-11-30T17:42:14Z</time>
      </trkpt>
      <trkpt lat="45.84176" lon="4.79782">
        <ele>580.4</ele>
        <time>2013-11-30T17:42:19Z</time>
      </trkpt>
      <trkpt lat="45.84168" lon="4.79779">
        <ele>581.7</ele>
        <time>2013-11-30T17:42:25Z</time>
      </trkpt>
      <trkpt lat="45.8416" lon="4.79786">
        <ele>583.4</ele>
        <time>2013-11-30T17:42:33Z</time>
      </trkpt>
      <trkpt lat="45.84162" lon="4.79797">
        <ele>584.2</ele>
        <time>2013-11-30T17:42:38Z</time>
      </trkpt>
      <trkpt lat="45.84165" lon="4.79808">
        <ele>584.9</ele>
        <time>2013-11-30T17:42:42Z</time>
      </trkpt>
      <trkpt lat="45.84168" lon="4.79818">
        <ele>585.2</ele>
        <time>2013-11-30T17:42:45Z</time>
      </trkpt>
      <trkpt lat="45.8417" lon="4.79829">
        <ele>585.5</ele>
        <time>2013-11-30T17:42:48Z</time>
      </trkpt>
      <trkpt lat="45.84172" lon="4.7984">
        <ele>585.7</ele>
        <time>2013-11-30T17:42:51Z</time>
      </trkpt>
      <trkpt lat="45.84172" lon="4.79844">
        <ele>585.7</ele>
        <time>2013-11-30T17:42:52Z</time>
      </trkpt>
      <trkpt lat="45.84173" lon="4.7986">
        <ele>586</ele>
        <time>2013-11-30T17:42:57Z</time>
      </trkpt>
      <trkpt lat="45.84174" lon="4.79871">
        <ele>586.2</ele>
        <time>2013-11-30T17:43:00Z</time>
      </trkpt>
      <trkpt lat="45.84176" lon="4.79881">
        <ele>586.2</ele>
        <time>2013-11-30T17:43:03Z</time>
      </trkpt>
      <trkpt lat="45.84177" lon="4.79892">
        <ele>586.4</ele>
        <time>2013-11-30T17:43:06Z</time>
      </trkpt>
      <trkpt lat="45.8418" lon="4.79902">
        <ele>586.4</ele>
        <time>2013-11-30T17:43:09Z</time>
      </trkpt>
      <trkpt lat="45.84184" lon="4.79912">
        <ele>586.4</ele>
        <time>2013-11-30T17:43:12Z</time>
      </trkpt>
      <trkpt lat="45.84189" lon="4.7992">
        <ele>586.4</ele>
        <time>2013-11-30T17:43:15Z</time>
      </trkpt>
      <trkpt lat="45.84195" lon="4.79927">
        <ele>586.2</ele>
        <time>2013-11-30T17:43:18Z</time>
      </trkpt>
      <trkpt lat="45.84203" lon="4.79932">
        <ele>586</ele>
        <time>2013-11-30T17:43:21Z</time>
      </trkpt>
      <trkpt lat="45.8421" lon="4.79937">
        <ele>586</ele>
        <time>2013-11-30T17:43:24Z</time>
      </trkpt>
      <trkpt lat="45.84217" lon="4.79942">
        <ele>585.7</ele>
        <time>2013-11-30T17:43:27Z</time>
      </trkpt>
      <trkpt lat="45.84224" lon="4.79948">
        <ele>585.7</ele>
        <time>2013-11-30T17:43:30Z</time>
      </trkpt>
      <trkpt lat="45.84229" lon="4.79955">
        <ele>585.5</ele>
        <time>2013-11-30T17:43:33Z</time>
      </trkpt>
      <trkpt lat="45.84232" lon="4.79965">
        <ele>585.2</ele>
        <time>2013-11-30T17:43:36Z</time>
      </trkpt>
      <trkpt lat="45.84229" lon="4.79976">
        <ele>585</ele>
        <time>2013-11-30T17:43:39Z</time>
      </trkpt>
      <trkpt lat="45.84223" lon="4.79984">
        <ele>585</ele>
        <time>2013-11-30T17:43:42Z</time>
      </trkpt>
      <trkpt lat="45.84215" lon="4.7999">
        <ele>584.7</ele>
        <time>2013-11-30T17:43:45Z</time>
      </trkpt>
      <trkpt lat="45.84208" lon="4.79994">
        <ele>584.7</ele>
        <time>2013-11-30T17:43:48Z</time>
      </trkpt>
      <trkpt lat="45.84201" lon="4.79997">
        <ele>584.5</ele>
        <time>2013-11-30T17:43:51Z</time>
      </trkpt>
      <trkpt lat="45.84193" lon="4.8">
        <ele>584.2</ele>
        <time>2013-11-30T17:43:54Z</time>
      </trkpt>
      <trkpt lat="45.84191" lon="4.80001">
        <ele>584.2</ele>
        <time>2013-11-30T17:43:55Z</time>
      </trkpt>
      <trkpt lat="45.84179" lon="4.80008">
        <ele>583.7</ele>
        <time>2013-11-30T17:44:00Z</time>
      </trkpt>
      <trkpt lat="45.84172" lon="4.80013">
        <ele>583.5</ele>
        <time>2013-11-30T17:44:03Z</time>
      </trkpt>
      <trkpt lat="45.84165" lon="4.80018">
        <ele>583.2</ele>
        <time>2013-11-30T17:44:06Z</time>
      </trkpt>
      <trkpt lat="45.84158" lon="4.80024">
        <ele>583</ele>
        <time>2013-11-30T17:44:09Z</time>
      </trkpt>
      <trkpt lat="45.8415" lon="4.80029">
        <ele>582.7</ele>
        <time>2013-11-30T17:44:12Z</time>
      </trkpt>
      <trkpt lat="45.84142" lon="4.80035">
        <ele>582.5</ele>
        <time>2013-11-30T17:44:15Z</time>
      </trkpt>
      <trkpt lat="45.84134" lon="4.8004">
        <ele>582.2</ele>
        <time>2013-11-30T17:44:18Z</time>
      </trkpt>
      <trkpt lat="45.84126" lon="4.80044">
        <ele>581.9</ele>
        <time>2013-11-30T17:44:21Z</time>
      </trkpt>
      <trkpt lat="45.84118" lon="4.80049">
        <ele>581.5</ele>
        <time>2013-11-30T17:44:24Z</time>
      </trkpt>
      <trkpt lat="45.8411" lon="4.80054">
        <ele>581.2</ele>
        <time>2013-11-30T17:44:27Z</time>
      </trkpt>
      <trkpt lat="45.84102" lon="4.80059">
        <ele>580.9</ele>
        <time>2013-11-30T17:44:30Z</time>
      </trkpt>
      <trkpt lat="45.84096" lon="4.80063">
        <ele>580.5</ele>
        <time>2013-11-30T17:44:32Z</time>
      </trkpt>
      <trkpt lat="45.84088" lon="4.80068">
        <ele>580.2</ele>
        <time>2013-11-30T17:44:35Z</time>
      </trkpt>
      <trkpt lat="45.8408" lon="4.80072">
        <ele>579.7</ele>
        <time>2013-11-30T17:44:38Z</time>
      </trkpt>
      <trkpt lat="45.84072" lon="4.80076">
        <ele>579.4</ele>
        <time>2013-11-30T17:44:41Z</time>
      </trkpt>
      <trkpt lat="45.84063" lon="4.8008">
        <ele>579</ele>
        <time>2013-11-30T17:44:44Z</time>
      </trkpt>
      <trkpt lat="45.84057" lon="4.80082">
        <ele>578.7</ele>
        <time>2013-11-30T17:44:46Z</time>
      </trkpt>
      <trkpt lat="45.84051" lon="4.80084">
        <ele>578.5</ele>
        <time>2013-11-30T17:44:48Z</time>
      </trkpt>
      <trkpt lat="45.84044" lon="4.80086">
        <ele>578.2</ele>
        <time>2013-11-30T17:44:50Z</time>
      </trkpt>
      <trkpt lat="45.84038" lon="4.80087">
        <ele>577.9</ele>
        <time>2013-11-30T17:44:52Z</time>
      </trkpt>
      <trkpt lat="45.84032" lon="4.80088">
        <ele>577.5</ele>
        <time>2013-11-30T17:44:54Z</time>
      </trkpt>
      <trkpt lat="45.84023" lon="4.80088">
        <ele>576.2</ele>
        <time>2013-11-30T17:45:00Z</time>
      </trkpt>
      <trkpt lat="45.84022" lon="4.80088">
        <ele>575.9</ele>
        <time>2013-11-30T17:45:01Z</time>
      </trkpt>
      <trkpt lat="45.84006" lon="4.80088">
        <ele>574.2</ele>
        <time>2013-11-30T17:45:08Z</time>
      </trkpt>
      <trkpt lat="45.83998" lon="4.80084">
        <ele>573.5</ele>
        <time>2013-11-30T17:45:12Z</time>
      </trkpt>
      <trkpt lat="45.83991" lon="4.80079">
        <ele>572.9</ele>
        <time>2013-11-30T17:45:15Z</time>
      </trkpt>
      <trkpt lat="45.83986" lon="4.80072">
        <ele>572.2</ele>
        <time>2013-11-30T17:45:18Z</time>
      </trkpt>
      <trkpt lat="45.83982" lon="4.80063">
        <ele>571.7</ele>
        <time>2013-11-30T17:45:21Z</time>
      </trkpt>
      <trkpt lat="45.83978" lon="4.80054">
        <ele>571.2</ele>
        <time>2013-11-30T17:45:24Z</time>
      </trkpt>
      <trkpt lat="45.83975" lon="4.80044">
        <ele>570.7</ele>
        <time>2013-11-30T17:45:27Z</time>
      </trkpt>
      <trkpt lat="45.83973" lon="4.80033">
        <ele>570.2</ele>
        <time>2013-11-30T17:45:30Z</time>
      </trkpt>
      <trkpt lat="45.8397" lon="4.80022">
        <ele>569.7</ele>
        <time>2013-11-30T17:45:33Z</time>
      </trkpt>
      <trkpt lat="45.83968" lon="4.80011">
        <ele>569.2</ele>
        <time>2013-11-30T17:45:36Z</time>
      </trkpt>
      <trkpt lat="45.83965" lon="4.79998">
        <ele>568.7</ele>
        <time>2013-11-30T17:45:39Z</time>
      </trkpt>
      <trkpt lat="45.83962" lon="4.79986">
        <ele>568.2</ele>
        <time>2013-11-30T17:45:42Z</time>
      </trkpt>
      <trkpt lat="45.83958" lon="4.79975">
        <ele>567.7</ele>
        <time>2013-11-30T17:45:45Z</time>
      </trkpt>
      <trkpt lat="45.83953" lon="4.79964">
        <ele>567</ele>
        <time>2013-11-30T17:45:48Z</time>
      </trkpt>
      <trkpt lat="45.83948" lon="4.79954">
        <ele>566.4</ele>
        <time>2013-11-30T17:45:51Z</time>
      </trkpt>
      <trkpt lat="45.83942" lon="4.79946">
        <ele>565.7</ele>
        <time>2013-11-30T17:45:54Z</time>
      </trkpt>
      <trkpt lat="45.83935" lon="4.79938">
        <ele>565.2</ele>
        <time>2013-11-30T17:45:57Z</time>
      </trkpt>
      <trkpt lat="45.83929" lon="4.79929">
        <ele>564.5</ele>
        <time>2013-11-30T17:46:00Z</time>
      </trkpt>
      <trkpt lat="45.83923" lon="4.79921">
        <ele>564</ele>
        <time>2013-11-30T17:46:03Z</time>
      </trkpt>
      <trkpt lat="45.83921" lon="4.79918">
        <ele>564</ele>
        <time>2013-11-30T17:46:04Z</time>
      </trkpt>
      <trkpt lat="45.83909" lon="4.79906">
        <ele>563.2</ele>
        <time>2013-11-30T17:46:09Z</time>
      </trkpt>
      <trkpt lat="45.83901" lon="4.79901">
        <ele>562.7</ele>
        <time>2013-11-30T17:46:12Z</time>
      </trkpt>
      <trkpt lat="45.83892" lon="4.79899">
        <ele>562.2</ele>
        <time>2013-11-30T17:46:15Z</time>
      </trkpt>
      <trkpt lat="45.83884" lon="4.79897">
        <ele>561.2</ele>
        <time>2013-11-30T17:46:23Z</time>
      </trkpt>
      <trkpt lat="45.83876" lon="4.79896">
        <ele>560.9</ele>
        <time>2013-11-30T17:46:26Z</time>
      </trkpt>
      <trkpt lat="45.83867" lon="4.79897">
        <ele>560.5</ele>
        <time>2013-11-30T17:46:29Z</time>
      </trkpt>
      <trkpt lat="45.83859" lon="4.79899">
        <ele>560.2</ele>
        <time>2013-11-30T17:46:32Z</time>
      </trkpt>
      <trkpt lat="45.8385" lon="4.79901">
        <ele>559.9</ele>
        <time>2013-11-30T17:46:35Z</time>
      </trkpt>
      <trkpt lat="45.83842" lon="4.79903">
        <ele>559.5</ele>
        <time>2013-11-30T17:46:38Z</time>
      </trkpt>
      <trkpt lat="45.83834" lon="4.79905">
        <ele>559.2</ele>
        <time>2013-11-30T17:46:41Z</time>
      </trkpt>
      <trkpt lat="45.83826" lon="4.79908">
        <ele>559</ele>
        <time>2013-11-30T17:46:44Z</time>
      </trkpt>
      <trkpt lat="45.83818" lon="4.79911">
        <ele>558.7</ele>
        <time>2013-11-30T17:46:47Z</time>
      </trkpt>
      <trkpt lat="45.83813" lon="4.79912">
        <ele>558.5</ele>
        <time>2013-11-30T17:46:49Z</time>
      </trkpt>
      <trkpt lat="45.83805" lon="4.79912">
        <ele>558.2</ele>
        <time>2013-11-30T17:46:51Z</time>
      </trkpt>
      <trkpt lat="45.83798" lon="4.79912">
        <ele>557.5</ele>
        <time>2013-11-30T17:46:53Z</time>
      </trkpt>
      <trkpt lat="45.8379" lon="4.79915">
        <ele>555.7</ele>
        <time>2013-11-30T17:46:57Z</time>
      </trkpt>
      <trkpt lat="45.83781" lon="4.79919">
        <ele>551.2</ele>
        <time>2013-11-30T17:47:19Z</time>
      </trkpt>
      <trkpt lat="45.8378" lon="4.7992">
        <ele>550.7</ele>
        <time>2013-11-30T17:47:20Z</time>
      </trkpt>
      <trkpt lat="45.83767" lon="4.79924">
        <ele>548</ele>
        <time>2013-11-30T17:47:26Z</time>
      </trkpt>
      <trkpt lat="45.83758" lon="4.79923">
        <ele>546.4</ele>
        <time>2013-11-30T17:47:30Z</time>
      </trkpt>
      <trkpt lat="45.83751" lon="4.79922">
        <ele>545.2</ele>
        <time>2013-11-30T17:47:33Z</time>
      </trkpt>
      <trkpt lat="45.83744" lon="4.7992">
        <ele>544.4</ele>
        <time>2013-11-30T17:47:36Z</time>
      </trkpt>
      <trkpt lat="45.83737" lon="4.79919">
        <ele>543.5</ele>
        <time>2013-11-30T17:47:39Z</time>
      </trkpt>
      <trkpt lat="45.8373" lon="4.79919">
        <ele>543</ele>
        <time>2013-11-30T17:47:42Z</time>
      </trkpt>
      <trkpt lat="45.83722" lon="4.79918">
        <ele>542.5</ele>
        <time>2013-11-30T17:47:45Z</time>
      </trkpt>
      <trkpt lat="45.83715" lon="4.79917">
        <ele>542.2</ele>
        <time>2013-11-30T17:47:48Z</time>
      </trkpt>
      <trkpt lat="45.83707" lon="4.79917">
        <ele>542</ele>
        <time>2013-11-30T17:47:51Z</time>
      </trkpt>
      <trkpt lat="45.837" lon="4.79916">
        <ele>541.7</ele>
        <time>2013-11-30T17:47:54Z</time>
      </trkpt>
      <trkpt lat="45.83692" lon="4.79915">
        <ele>541.5</ele>
        <time>2013-11-30T17:47:57Z</time>
      </trkpt>
      <trkpt lat="45.83684" lon="4.79914">
        <ele>541.2</ele>
        <time>2013-11-30T17:48:00Z</time>
      </trkpt>
      <trkpt lat="45.83675" lon="4.79914">
        <ele>541</ele>
        <time>2013-11-30T17:48:03Z</time>
      </trkpt>
      <trkpt lat="45.83667" lon="4.79913">
        <ele>541</ele>
        <time>2013-11-30T17:48:06Z</time>
      </trkpt>
      <trkpt lat="45.83659" lon="4.79914">
        <ele>540.7</ele>
        <time>2013-11-30T17:48:09Z</time>
      </trkpt>
      <trkpt lat="45.83651" lon="4.79913">
        <ele>540.5</ele>
        <time>2013-11-30T17:48:12Z</time>
      </trkpt>
      <trkpt lat="45.83645" lon="4.79913">
        <ele>540.5</ele>
        <time>2013-11-30T17:48:14Z</time>
      </trkpt>
      <trkpt lat="45.83639" lon="4.79913">
        <ele>540.5</ele>
        <time>2013-11-30T17:48:16Z</time>
      </trkpt>
      <trkpt lat="45.8363" lon="4.79913">
        <ele>540.2</ele>
        <time>2013-11-30T17:48:19Z</time>
      </trkpt>
      <trkpt lat="45.83622" lon="4.79914">
        <ele>540.2</ele>
        <time>2013-11-30T17:48:22Z</time>
      </trkpt>
      <trkpt lat="45.83619" lon="4.79913">
        <ele>540.2</ele>
        <time>2013-11-30T17:48:23Z</time>
      </trkpt>
      <trkpt lat="45.83606" lon="4.79913">
        <ele>540</ele>
        <time>2013-11-30T17:48:28Z</time>
      </trkpt>
      <trkpt lat="45.83598" lon="4.79912">
        <ele>539.9</ele>
        <time>2013-11-30T17:48:31Z</time>
      </trkpt>
      <trkpt lat="45.83591" lon="4.79912">
        <ele>539.7</ele>
        <time>2013-11-30T17:48:34Z</time>
      </trkpt>
      <trkpt lat="45.83583" lon="4.79912">
        <ele>539.7</ele>
        <time>2013-11-30T17:48:37Z</time>
      </trkpt>
      <trkpt lat="45.83575" lon="4.79914">
        <ele>539.4</ele>
        <time>2013-11-30T17:48:40Z</time>
      </trkpt>
      <trkpt lat="45.83566" lon="4.79915">
        <ele>538.5</ele>
        <time>2013-11-30T17:48:45Z</time>
      </trkpt>
      <trkpt lat="45.83575" lon="4.79916">
        <ele>534.7</ele>
        <time>2013-11-30T17:49:06Z</time>
      </trkpt>
      <trkpt lat="45.83583" lon="4.79915">
        <ele>533.5</ele>
        <time>2013-11-30T17:49:13Z</time>
      </trkpt>
      <trkpt lat="45.83591" lon="4.79914">
        <ele>532.5</ele>
        <time>2013-11-30T17:49:18Z</time>
      </trkpt>
      <trkpt lat="45.83599" lon="4.79914">
        <ele>532</ele>
        <time>2013-11-30T17:49:22Z</time>
      </trkpt>
      <trkpt lat="45.83608" lon="4.79916">
        <ele>531.7</ele>
        <time>2013-11-30T17:49:26Z</time>
      </trkpt>
      <trkpt lat="45.8361" lon="4.79916">
        <ele>531.7</ele>
        <time>2013-11-30T17:49:27Z</time>
      </trkpt>
      <trkpt lat="45.83625" lon="4.79919">
        <ele>531.2</ele>
        <time>2013-11-30T17:49:34Z</time>
      </trkpt>
      <trkpt lat="45.83633" lon="4.7992">
        <ele>531</ele>
        <time>2013-11-30T17:49:38Z</time>
      </trkpt>
      <trkpt lat="45.83641" lon="4.79919">
        <ele>531</ele>
        <time>2013-11-30T17:49:42Z</time>
      </trkpt>
      <trkpt lat="45.8365" lon="4.79919">
        <ele>530.9</ele>
        <time>2013-11-30T17:49:46Z</time>
      </trkpt>
      <trkpt lat="45.83657" lon="4.79921">
        <ele>530.7</ele>
        <time>2013-11-30T17:49:49Z</time>
      </trkpt>
      <trkpt lat="45.83666" lon="4.79922">
        <ele>530.5</ele>
        <time>2013-11-30T17:49:53Z</time>
      </trkpt>
      <trkpt lat="45.83675" lon="4.79921">
        <ele>530.5</ele>
        <time>2013-11-30T17:49:57Z</time>
      </trkpt>
      <trkpt lat="45.83682" lon="4.79921">
        <ele>530.4</ele>
        <time>2013-11-30T17:50:00Z</time>
      </trkpt>
      <trkpt lat="45.83689" lon="4.7992">
        <ele>530.4</ele>
        <time>2013-11-30T17:50:03Z</time>
      </trkpt>
      <trkpt lat="45.83696" lon="4.79919">
        <ele>530.2</ele>
        <time>2013-11-30T17:50:06Z</time>
      </trkpt>
      <trkpt lat="45.83703" lon="4.79918">
        <ele>530.2</ele>
        <time>2013-11-30T17:50:09Z</time>
      </trkpt>
      <trkpt lat="45.8371" lon="4.79918">
        <ele>530</ele>
        <time>2013-11-30T17:50:12Z</time>
      </trkpt>
      <trkpt lat="45.83718" lon="4.79918">
        <ele>530</ele>
        <time>2013-11-30T17:50:15Z</time>
      </trkpt>
      <trkpt lat="45.83724" lon="4.79918">
        <ele>529.9</ele>
        <time>2013-11-30T17:50:17Z</time>
      </trkpt>
      <trkpt lat="45.83733" lon="4.7992">
        <ele>529.7</ele>
        <time>2013-11-30T17:50:20Z</time>
      </trkpt>
      <trkpt lat="45.83739" lon="4.79929">
        <ele>529.5</ele>
        <time>2013-11-30T17:50:26Z</time>
      </trkpt>
      <trkpt lat="45.83748" lon="4.79932">
        <ele>529.2</ele>
        <time>2013-11-30T17:50:38Z</time>
      </trkpt>
      <trkpt lat="45.83748" lon="4.79932">
        <ele>529</ele>
        <time>2013-11-30T17:50:39Z</time>
      </trkpt>
      <trkpt lat="45.83733" lon="4.79944">
        <ele>527.5</ele>
        <time>2013-11-30T17:50:56Z</time>
      </trkpt>
      <trkpt lat="45.83726" lon="4.79947">
        <ele>526.9</ele>
        <time>2013-11-30T17:51:00Z</time>
      </trkpt>
      <trkpt lat="45.83718" lon="4.7995">
        <ele>526</ele>
        <time>2013-11-30T17:51:04Z</time>
      </trkpt>
      <trkpt lat="45.83711" lon="4.79952">
        <ele>525.5</ele>
        <time>2013-11-30T17:51:08Z</time>
      </trkpt>
      <trkpt lat="45.83703" lon="4.79955">
        <ele>524.9</ele>
        <time>2013-11-30T17:51:12Z</time>
      </trkpt>
      <trkpt lat="45.83695" lon="4.79958">
        <ele>524.4</ele>
        <time>2013-11-30T17:51:16Z</time>
      </trkpt>
      <trkpt lat="45.83688" lon="4.79961">
        <ele>524</ele>
        <time>2013-11-30T17:51:19Z</time>
      </trkpt>
      <trkpt lat="45.83682" lon="4.79964">
        <ele>523.7</ele>
        <time>2013-11-30T17:51:22Z</time>
      </trkpt>
      <trkpt lat="45.83675" lon="4.79968">
        <ele>523.5</ele>
        <time>2013-11-30T17:51:25Z</time>
      </trkpt>
      <trkpt lat="45.83669" lon="4.79972">
        <ele>523.5</ele>
        <time>2013-11-30T17:51:28Z</time>
      </trkpt>
      <trkpt lat="45.83662" lon="4.79978">
        <ele>523</ele>
        <time>2013-11-30T17:51:31Z</time>
      </trkpt>
      <trkpt lat="45.83655" lon="4.79983">
        <ele>522.7</ele>
        <time>2013-11-30T17:51:34Z</time>
      </trkpt>
      <trkpt lat="45.83648" lon="4.79989">
        <ele>522.5</ele>
        <time>2013-11-30T17:51:37Z</time>
      </trkpt>
      <trkpt lat="45.8364" lon="4.79994">
        <ele>522</ele>
        <time>2013-11-30T17:51:41Z</time>
      </trkpt>
      <trkpt lat="45.8364" lon="4.79994">
        <ele>522</ele>
        <time>2013-11-30T17:51:42Z</time>
      </trkpt>
      <trkpt lat="45.83625" lon="4.80006">
        <ele>521</ele>
        <time>2013-11-30T17:51:59Z</time>
      </trkpt>
      <trkpt lat="45.83618" lon="4.80012">
        <ele>520.7</ele>
        <time>2013-11-30T17:52:02Z</time>
      </trkpt>
      <trkpt lat="45.83612" lon="4.8002">
        <ele>520</ele>
        <time>2013-11-30T17:52:05Z</time>
      </trkpt>
      <trkpt lat="45.83606" lon="4.80029">
        <ele>519.2</ele>
        <time>2013-11-30T17:52:10Z</time>
      </trkpt>
      <trkpt lat="45.83601" lon="4.80039">
        <ele>517.9</ele>
        <time>2013-11-30T17:52:17Z</time>
      </trkpt>
      <trkpt lat="45.83595" lon="4.80047">
        <ele>516.9</ele>
        <time>2013-11-30T17:52:23Z</time>
      </trkpt>
      <trkpt lat="45.83588" lon="4.80053">
        <ele>516.4</ele>
        <time>2013-11-30T17:52:27Z</time>
      </trkpt>
      <trkpt lat="45.83581" lon="4.8006">
        <ele>515.9</ele>
        <time>2013-11-30T17:52:31Z</time>
      </trkpt>
      <trkpt lat="45.83575" lon="4.80067">
        <ele>515.5</ele>
        <time>2013-11-30T17:52:35Z</time>
      </trkpt>
      <trkpt lat="45.83569" lon="4.80077">
        <ele>515</ele>
        <time>2013-11-30T17:52:41Z</time>
      </trkpt>
      <trkpt lat="45.83563" lon="4.80085">
        <ele>514.5</ele>
        <time>2013-11-30T17:52:46Z</time>
      </trkpt>
      <trkpt lat="45.83562" lon="4.80086">
        <ele>514.5</ele>
        <time>2013-11-30T17:52:47Z</time>
      </trkpt>
      <trkpt lat="45.83553" lon="4.801">
        <ele>513.7</ele>
        <time>2013-11-30T17:52:55Z</time>
      </trkpt>
      <trkpt lat="45.83548" lon="4.80109">
        <ele>513.4</ele>
        <time>2013-11-30T17:52:59Z</time>
      </trkpt>
      <trkpt lat="45.83542" lon="4.80118">
        <ele>513</ele>
        <time>2013-11-30T17:53:03Z</time>
      </trkpt>
      <trkpt lat="45.83536" lon="4.80126">
        <ele>512.5</ele>
        <time>2013-11-30T17:53:07Z</time>
      </trkpt>
      <trkpt lat="45.83531" lon="4.80137">
        <ele>511.2</ele>
        <time>2013-11-30T17:53:13Z</time>
      </trkpt>
      <trkpt lat="45.83525" lon="4.80144">
        <ele>510.2</ele>
        <time>2013-11-30T17:53:18Z</time>
      </trkpt>
      <trkpt lat="45.8352" lon="4.80151">
        <ele>509.2</ele>
        <time>2013-11-30T17:53:23Z</time>
      </trkpt>
      <trkpt lat="45.83515" lon="4.80161">
        <ele>508.2</ele>
        <time>2013-11-30T17:53:29Z</time>
      </trkpt>
      <trkpt lat="45.83511" lon="4.80172">
        <ele>507.2</ele>
        <time>2013-11-30T17:53:35Z</time>
      </trkpt>
      <trkpt lat="45.83507" lon="4.80183">
        <ele>506.7</ele>
        <time>2013-11-30T17:53:40Z</time>
      </trkpt>
      <trkpt lat="45.83506" lon="4.80195">
        <ele>506</ele>
        <time>2013-11-30T17:53:45Z</time>
      </trkpt>
      <trkpt lat="45.83506" lon="4.80205">
        <ele>505.2</ele>
        <time>2013-11-30T17:53:49Z</time>
      </trkpt>
      <trkpt lat="45.83506" lon="4.80209">
        <ele>505.2</ele>
        <time>2013-11-30T17:53:50Z</time>
      </trkpt>
      <trkpt lat="45.83506" lon="4.80227">
        <ele>504.6</ele>
        <time>2013-11-30T17:53:55Z</time>
      </trkpt>
      <trkpt lat="45.83507" lon="4.80237">
        <ele>504.2</ele>
        <time>2013-11-30T17:53:58Z</time>
      </trkpt>
      <trkpt lat="45.83508" lon="4.80248">
        <ele>504.1</ele>
        <time>2013-11-30T17:54:01Z</time>
      </trkpt>
      <trkpt lat="45.83513" lon="4.80259">
        <ele>503.7</ele>
        <time>2013-11-30T17:54:05Z</time>
      </trkpt>
      <trkpt lat="45.83517" lon="4.80268">
        <ele>503.7</ele>
        <time>2013-11-30T17:54:08Z</time>
      </trkpt>
      <trkpt lat="45.83521" lon="4.80276">
        <ele>503.5</ele>
        <time>2013-11-30T17:54:11Z</time>
      </trkpt>
      <trkpt lat="45.83525" lon="4.80284">
        <ele>503.2</ele>
        <time>2013-11-30T17:54:14Z</time>
      </trkpt>
      <trkpt lat="45.83529" lon="4.80294">
        <ele>503.2</ele>
        <time>2013-11-30T17:54:17Z</time>
      </trkpt>
      <trkpt lat="45.83533" lon="4.80303">
        <ele>503.2</ele>
        <time>2013-11-30T17:54:20Z</time>
      </trkpt>
      <trkpt lat="45.83538" lon="4.80311">
        <ele>503.1</ele>
        <time>2013-11-30T17:54:23Z</time>
      </trkpt>
      <trkpt lat="45.83542" lon="4.8032">
        <ele>503</ele>
        <time>2013-11-30T17:54:26Z</time>
      </trkpt>
      <trkpt lat="45.83546" lon="4.80328">
        <ele>502.7</ele>
        <time>2013-11-30T17:54:29Z</time>
      </trkpt>
      <trkpt lat="45.83551" lon="4.80339">
        <ele>502.5</ele>
        <time>2013-11-30T17:54:33Z</time>
      </trkpt>
      <trkpt lat="45.83556" lon="4.80347">
        <ele>502.1</ele>
        <time>2013-11-30T17:54:37Z</time>
      </trkpt>
      <trkpt lat="45.83562" lon="4.80353">
        <ele>501.7</ele>
        <time>2013-11-30T17:54:40Z</time>
      </trkpt>
      <trkpt lat="45.83568" lon="4.8036">
        <ele>501.7</ele>
        <time>2013-11-30T17:54:43Z</time>
      </trkpt>
      <trkpt lat="45.83574" lon="4.80368">
        <ele>501.2</ele>
        <time>2013-11-30T17:54:47Z</time>
      </trkpt>
      <trkpt lat="45.8358" lon="4.80375">
        <ele>500.7</ele>
        <time>2013-11-30T17:54:51Z</time>
      </trkpt>
      <trkpt lat="45.83582" lon="4.80376">
        <ele>500.7</ele>
        <time>2013-11-30T17:54:52Z</time>
      </trkpt>
      <trkpt lat="45.83593" lon="4.80389">
        <ele>499.6</ele>
        <time>2013-11-30T17:55:00Z</time>
      </trkpt>
      <trkpt lat="45.83598" lon="4.80398">
        <ele>499.2</ele>
        <time>2013-11-30T17:55:04Z</time>
      </trkpt>
      <trkpt lat="45.83601" lon="4.80409">
        <ele>498.6</ele>
        <time>2013-11-30T17:55:08Z</time>
      </trkpt>
      <trkpt lat="45.83606" lon="4.80418">
        <ele>498</ele>
        <time>2013-11-30T17:55:12Z</time>
      </trkpt>
      <trkpt lat="45.83614" lon="4.80422">
        <ele>497.2</ele>
        <time>2013-11-30T17:55:17Z</time>
      </trkpt>
      <trkpt lat="45.83623" lon="4.8042">
        <ele>496.7</ele>
        <time>2013-11-30T17:55:22Z</time>
      </trkpt>
      <trkpt lat="45.8363" lon="4.80417">
        <ele>496.2</ele>
        <time>2013-11-30T17:55:26Z</time>
      </trkpt>
      <trkpt lat="45.83637" lon="4.80412">
        <ele>496</ele>
        <time>2013-11-30T17:55:33Z</time>
      </trkpt>
      <trkpt lat="45.83644" lon="4.80405">
        <ele>495.2</ele>
        <time>2013-11-30T17:55:39Z</time>
      </trkpt>
      <trkpt lat="45.8365" lon="4.804">
        <ele>495.1</ele>
        <time>2013-11-30T17:55:42Z</time>
      </trkpt>
      <trkpt lat="45.83656" lon="4.80395">
        <ele>494.7</ele>
        <time>2013-11-30T17:55:45Z</time>
      </trkpt>
      <trkpt lat="45.83663" lon="4.80391">
        <ele>494.5</ele>
        <time>2013-11-30T17:55:49Z</time>
      </trkpt>
      <trkpt lat="45.8367" lon="4.80387">
        <ele>494.2</ele>
        <time>2013-11-30T17:55:53Z</time>
      </trkpt>
      <trkpt lat="45.83672" lon="4.80386">
        <ele>494.1</ele>
        <time>2013-11-30T17:55:54Z</time>
      </trkpt>
      <trkpt lat="45.83687" lon="4.80385">
        <ele>493.2</ele>
        <time>2013-11-30T17:56:04Z</time>
      </trkpt>
      <trkpt lat="45.83695" lon="4.80391">
        <ele>492.7</ele>
        <time>2013-11-30T17:56:10Z</time>
      </trkpt>
      <trkpt lat="45.83701" lon="4.80397">
        <ele>492.2</ele>
        <time>2013-11-30T17:56:15Z</time>
      </trkpt>
      <trkpt lat="45.83707" lon="4.80403">
        <ele>491.2</ele>
        <time>2013-11-30T17:56:20Z</time>
      </trkpt>
      <trkpt lat="45.83714" lon="4.80413">
        <ele>490.2</ele>
        <time>2013-11-30T17:56:26Z</time>
      </trkpt>
      <trkpt lat="45.8372" lon="4.80421">
        <ele>489.5</ele>
        <time>2013-11-30T17:56:33Z</time>
      </trkpt>
      <trkpt lat="45.83726" lon="4.8043">
        <ele>488.6</ele>
        <time>2013-11-30T17:56:39Z</time>
      </trkpt>
      <trkpt lat="45.8373" lon="4.80442">
        <ele>487.7</ele>
        <time>2013-11-30T17:56:45Z</time>
      </trkpt>
      <trkpt lat="45.83731" lon="4.80453">
        <ele>487.1</ele>
        <time>2013-11-30T17:56:51Z</time>
      </trkpt>
      <trkpt lat="45.83732" lon="4.80466">
        <ele>486.6</ele>
        <time>2013-11-30T17:56:55Z</time>
      </trkpt>
      <trkpt lat="45.83731" lon="4.80474">
        <ele>486.2</ele>
        <time>2013-11-30T17:56:56Z</time>
      </trkpt>
      <trkpt lat="45.83727" lon="4.80485">
        <ele>486.2</ele>
        <time>2013-11-30T17:56:57Z</time>
      </trkpt>
      <trkpt lat="45.83724" lon="4.80497">
        <ele>486.2</ele>
        <time>2013-11-30T17:56:58Z</time>
      </trkpt>
      <trkpt lat="45.83721" lon="4.80508">
        <ele>486.1</ele>
        <time>2013-11-30T17:56:59Z</time>
      </trkpt>
      <trkpt lat="45.83718" lon="4.80517">
        <ele>486</ele>
        <time>2013-11-30T17:57:00Z</time>
      </trkpt>
      <trkpt lat="45.83715" lon="4.80529">
        <ele>485.7</ele>
        <time>2013-11-30T17:57:02Z</time>
      </trkpt>
      <trkpt lat="45.83711" lon="4.8054">
        <ele>482.7</ele>
        <time>2013-11-30T17:57:07Z</time>
      </trkpt>
      <trkpt lat="45.83717" lon="4.80546">
        <ele>474.7</ele>
        <time>2013-11-30T17:57:23Z</time>
      </trkpt>
      <trkpt lat="45.83724" lon="4.80545">
        <ele>473.2</ele>
        <time>2013-11-30T17:57:26Z</time>
      </trkpt>
      <trkpt lat="45.83732" lon="4.80544">
        <ele>471.7</ele>
        <time>2013-11-30T17:57:29Z</time>
      </trkpt>
      <trkpt lat="45.83735" lon="4.80556">
        <ele>469.2</ele>
        <time>2013-11-30T17:57:36Z</time>
      </trkpt>
      <trkpt lat="45.83731" lon="4.80563">
        <ele>468.6</ele>
        <time>2013-11-30T17:57:38Z</time>
      </trkpt>
      <trkpt lat="45.83726" lon="4.80568">
        <ele>468</ele>
        <time>2013-11-30T17:57:40Z</time>
      </trkpt>
      <trkpt lat="45.83721" lon="4.80578">
        <ele>466.7</ele>
        <time>2013-11-30T17:57:43Z</time>
      </trkpt>
      <trkpt lat="45.83717" lon="4.80586">
        <ele>465.7</ele>
        <time>2013-11-30T17:57:46Z</time>
      </trkpt>
      <trkpt lat="45.83713" lon="4.80595">
        <ele>465</ele>
        <time>2013-11-30T17:57:49Z</time>
      </trkpt>
      <trkpt lat="45.83711" lon="4.80605">
        <ele>464.1</ele>
        <time>2013-11-30T17:57:52Z</time>
      </trkpt>
      <trkpt lat="45.8371" lon="4.80616">
        <ele>463.5</ele>
        <time>2013-11-30T17:57:55Z</time>
      </trkpt>
      <trkpt lat="45.8371" lon="4.80627">
        <ele>462.7</ele>
        <time>2013-11-30T17:57:58Z</time>
      </trkpt>
      <trkpt lat="45.8371" lon="4.80631">
        <ele>462.7</ele>
        <time>2013-11-30T17:57:59Z</time>
      </trkpt>
      <trkpt lat="45.83711" lon="4.8065">
        <ele>462</ele>
        <time>2013-11-30T17:58:04Z</time>
      </trkpt>
      <trkpt lat="45.83714" lon="4.80661">
        <ele>461.5</ele>
        <time>2013-11-30T17:58:07Z</time>
      </trkpt>
      <trkpt lat="45.83718" lon="4.80672">
        <ele>461</ele>
        <time>2013-11-30T17:58:10Z</time>
      </trkpt>
      <trkpt lat="45.8372" lon="4.8068">
        <ele>460.6</ele>
        <time>2013-11-30T17:58:12Z</time>
      </trkpt>
      <trkpt lat="45.83723" lon="4.80691">
        <ele>460</ele>
        <time>2013-11-30T17:58:15Z</time>
      </trkpt>
      <trkpt lat="45.83723" lon="4.80703">
        <ele>458.5</ele>
        <time>2013-11-30T17:58:20Z</time>
      </trkpt>
      <trkpt lat="45.83729" lon="4.80711">
        <ele>455.1</ele>
        <time>2013-11-30T17:58:31Z</time>
      </trkpt>
      <trkpt lat="45.83737" lon="4.80715">
        <ele>453.7</ele>
        <time>2013-11-30T17:58:34Z</time>
      </trkpt>
      <trkpt lat="45.83744" lon="4.8072">
        <ele>452.5</ele>
        <time>2013-11-30T17:58:37Z</time>
      </trkpt>
      <trkpt lat="45.8375" lon="4.80725">
        <ele>451.2</ele>
        <time>2013-11-30T17:58:40Z</time>
      </trkpt>
      <trkpt lat="45.83756" lon="4.80731">
        <ele>450.2</ele>
        <time>2013-11-30T17:58:43Z</time>
      </trkpt>
      <trkpt lat="45.83761" lon="4.80739">
        <ele>449.2</ele>
        <time>2013-11-30T17:58:47Z</time>
      </trkpt>
      <trkpt lat="45.83767" lon="4.80747">
        <ele>448.2</ele>
        <time>2013-11-30T17:58:51Z</time>
      </trkpt>
      <trkpt lat="45.83774" lon="4.80755">
        <ele>447.2</ele>
        <time>2013-11-30T17:58:55Z</time>
      </trkpt>
      <trkpt lat="45.8378" lon="4.80764">
        <ele>446.2</ele>
        <time>2013-11-30T17:58:59Z</time>
      </trkpt>
      <trkpt lat="45.83782" lon="4.80765">
        <ele>446.1</ele>
        <time>2013-11-30T17:59:00Z</time>
      </trkpt>
      <trkpt lat="45.83793" lon="4.80776">
        <ele>444.7</ele>
        <time>2013-11-30T17:59:07Z</time>
      </trkpt>
      <trkpt lat="45.83799" lon="4.80782">
        <ele>444.2</ele>
        <time>2013-11-30T17:59:11Z</time>
      </trkpt>
      <trkpt lat="45.83805" lon="4.80788">
        <ele>443.7</ele>
        <time>2013-11-30T17:59:15Z</time>
      </trkpt>
      <trkpt lat="45.83809" lon="4.80798">
        <ele>443.2</ele>
        <time>2013-11-30T17:59:19Z</time>
      </trkpt>
      <trkpt lat="45.83813" lon="4.80807">
        <ele>442.6</ele>
        <time>2013-11-30T17:59:23Z</time>
      </trkpt>
      <trkpt lat="45.83818" lon="4.80815">
        <ele>442.2</ele>
        <time>2013-11-30T17:59:26Z</time>
      </trkpt>
      <trkpt lat="45.83823" lon="4.80822">
        <ele>441.7</ele>
        <time>2013-11-30T17:59:29Z</time>
      </trkpt>
      <trkpt lat="45.83829" lon="4.8083">
        <ele>441.2</ele>
        <time>2013-11-30T17:59:33Z</time>
      </trkpt>
      <trkpt lat="45.83835" lon="4.80837">
        <ele>440.7</ele>
        <time>2013-11-30T17:59:38Z</time>
      </trkpt>
      <trkpt lat="45.83842" lon="4.80842">
        <ele>440</ele>
        <time>2013-11-30T17:59:44Z</time>
      </trkpt>
      <trkpt lat="45.83851" lon="4.80844">
        <ele>439.5</ele>
        <time>2013-11-30T17:59:50Z</time>
      </trkpt>
      <trkpt lat="45.8386" lon="4.80845">
        <ele>439.2</ele>
        <time>2013-11-30T17:59:56Z</time>
      </trkpt>
      <trkpt lat="45.83867" lon="4.80846">
        <ele>439</ele>
        <time>2013-11-30T18:00:01Z</time>
      </trkpt>
      <trkpt lat="45.83869" lon="4.80846">
        <ele>438.7</ele>
        <time>2013-11-30T18:00:02Z</time>
      </trkpt>
      <trkpt lat="45.83883" lon="4.80851">
        <ele>438.7</ele>
        <time>2013-11-30T18:00:11Z</time>
      </trkpt>
      <trkpt lat="45.83891" lon="4.80854">
        <ele>438.6</ele>
        <time>2013-11-30T18:00:15Z</time>
      </trkpt>
      <trkpt lat="45.839" lon="4.80855">
        <ele>438.6</ele>
        <time>2013-11-30T18:00:19Z</time>
      </trkpt>
      <trkpt lat="45.83907" lon="4.80856">
        <ele>438.5</ele>
        <time>2013-11-30T18:00:22Z</time>
      </trkpt>
      <trkpt lat="45.83915" lon="4.80858">
        <ele>438.5</ele>
        <time>2013-11-30T18:00:25Z</time>
      </trkpt>
      <trkpt lat="45.83921" lon="4.8086">
        <ele>438.2</ele>
        <time>2013-11-30T18:00:27Z</time>
      </trkpt>
      <trkpt lat="45.83928" lon="4.80862">
        <ele>438.2</ele>
        <time>2013-11-30T18:00:29Z</time>
      </trkpt>
      <trkpt lat="45.83936" lon="4.80865">
        <ele>438.2</ele>
        <time>2013-11-30T18:00:32Z</time>
      </trkpt>
      <trkpt lat="45.83943" lon="4.80872">
        <ele>438.1</ele>
        <time>2013-11-30T18:00:35Z</time>
      </trkpt>
      <trkpt lat="45.83949" lon="4.80881">
        <ele>437.7</ele>
        <time>2013-11-30T18:00:39Z</time>
      </trkpt>
      <trkpt lat="45.83951" lon="4.80893">
        <ele>437.6</ele>
        <time>2013-11-30T18:00:43Z</time>
      </trkpt>
      <trkpt lat="45.83951" lon="4.80903">
        <ele>437.2</ele>
        <time>2013-11-30T18:00:46Z</time>
      </trkpt>
      <trkpt lat="45.8395" lon="4.80915">
        <ele>437.2</ele>
        <time>2013-11-30T18:00:50Z</time>
      </trkpt>
      <trkpt lat="45.83948" lon="4.80926">
        <ele>436.7</ele>
        <time>2013-11-30T18:00:55Z</time>
      </trkpt>
      <trkpt lat="45.83948" lon="4.80938">
        <ele>436.1</ele>
        <time>2013-11-30T18:01:06Z</time>
      </trkpt>
      <trkpt lat="45.83947" lon="4.8094">
        <ele>436</ele>
        <time>2013-11-30T18:01:07Z</time>
      </trkpt>
      <trkpt lat="45.83944" lon="4.8096">
        <ele>435.6</ele>
        <time>2013-11-30T18:01:15Z</time>
      </trkpt>
      <trkpt lat="45.83942" lon="4.80972">
        <ele>435.2</ele>
        <time>2013-11-30T18:01:20Z</time>
      </trkpt>
      <trkpt lat="45.83943" lon="4.80983">
        <ele>435.2</ele>
        <time>2013-11-30T18:01:25Z</time>
      </trkpt>
      <trkpt lat="45.83945" lon="4.80993">
        <ele>435.1</ele>
        <time>2013-11-30T18:01:29Z</time>
      </trkpt>
      <trkpt lat="45.83946" lon="4.81004">
        <ele>435.1</ele>
        <time>2013-11-30T18:01:33Z</time>
      </trkpt>
      <trkpt lat="45.83946" lon="4.81017">
        <ele>435</ele>
        <time>2013-11-30T18:01:38Z</time>
      </trkpt>
      <trkpt lat="45.83946" lon="4.81028">
        <ele>435</ele>
        <time>2013-11-30T18:01:42Z</time>
      </trkpt>
      <trkpt lat="45.83947" lon="4.81039">
        <ele>434.7</ele>
        <time>2013-11-30T18:01:46Z</time>
      </trkpt>
      <trkpt lat="45.83948" lon="4.81049">
        <ele>434.7</ele>
        <time>2013-11-30T18:01:49Z</time>
      </trkpt>
      <trkpt lat="45.8395" lon="4.8106">
        <ele>434.5</ele>
        <time>2013-11-30T18:01:52Z</time>
      </trkpt>
      <trkpt lat="45.83951" lon="4.81069">
        <ele>434.2</ele>
        <time>2013-11-30T18:01:54Z</time>
      </trkpt>
      <trkpt lat="45.83952" lon="4.81082">
        <ele>434.2</ele>
        <time>2013-11-30T18:01:57Z</time>
      </trkpt>
      <trkpt lat="45.83954" lon="4.81094">
        <ele>433.7</ele>
        <time>2013-11-30T18:02:00Z</time>
      </trkpt>
      <trkpt lat="45.83955" lon="4.81105">
        <ele>433.7</ele>
        <time>2013-11-30T18:02:03Z</time>
      </trkpt>
      <trkpt lat="45.83957" lon="4.81114">
        <ele>433.7</ele>
        <time>2013-11-30T18:02:05Z</time>
      </trkpt>
      <trkpt lat="45.8396" lon="4.81126">
        <ele>433.6</ele>
        <time>2013-11-30T18:02:08Z</time>
      </trkpt>
      <trkpt lat="45.83961" lon="4.8113">
        <ele>433.5</ele>
        <time>2013-11-30T18:02:09Z</time>
      </trkpt>
      <trkpt lat="45.83965" lon="4.81149">
        <ele>433.2</ele>
        <time>2013-11-30T18:02:14Z</time>
      </trkpt>
      <trkpt lat="45.83969" lon="4.8116">
        <ele>433.2</ele>
        <time>2013-11-30T18:02:17Z</time>
      </trkpt>
      <trkpt lat="45.83974" lon="4.8117">
        <ele>433.2</ele>
        <time>2013-11-30T18:02:20Z</time>
      </trkpt>
      <trkpt lat="45.83978" lon="4.81179">
        <ele>433.1</ele>
        <time>2013-11-30T18:02:23Z</time>
      </trkpt>
      <trkpt lat="45.83982" lon="4.81188">
        <ele>433</ele>
        <time>2013-11-30T18:02:26Z</time>
      </trkpt>
      <trkpt lat="45.83988" lon="4.81194">
        <ele>433</ele>
        <time>2013-11-30T18:02:29Z</time>
      </trkpt>
      <trkpt lat="45.83994" lon="4.81201">
        <ele>433</ele>
        <time>2013-11-30T18:02:32Z</time>
      </trkpt>
      <trkpt lat="45.84" lon="4.81209">
        <ele>432.7</ele>
        <time>2013-11-30T18:02:36Z</time>
      </trkpt>
      <trkpt lat="45.84007" lon="4.81215">
        <ele>432.7</ele>
        <time>2013-11-30T18:02:41Z</time>
      </trkpt>
      <trkpt lat="45.84014" lon="4.81221">
        <ele>432.6</ele>
        <time>2013-11-30T18:02:47Z</time>
      </trkpt>
      <trkpt lat="45.8402" lon="4.81226">
        <ele>432.5</ele>
        <time>2013-11-30T18:02:51Z</time>
      </trkpt>
      <trkpt lat="45.84027" lon="4.81231">
        <ele>432.2</ele>
        <time>2013-11-30T18:02:55Z</time>
      </trkpt>
      <trkpt lat="45.84034" lon="4.81237">
        <ele>432.2</ele>
        <time>2013-11-30T18:03:00Z</time>
      </trkpt>
      <trkpt lat="45.84043" lon="4.81241">
        <ele>431.7</ele>
        <time>2013-11-30T18:03:06Z</time>
      </trkpt>
      <trkpt lat="45.8405" lon="4.81243">
        <ele>431.2</ele>
        <time>2013-11-30T18:03:11Z</time>
      </trkpt>
      <trkpt lat="45.84052" lon="4.81243">
        <ele>431.2</ele>
        <time>2013-11-30T18:03:12Z</time>
      </trkpt>
      <trkpt lat="45.84063" lon="4.81244">
        <ele>430.7</ele>
        <time>2013-11-30T18:03:16Z</time>
      </trkpt>
      <trkpt lat="45.84069" lon="4.81245">
        <ele>430.7</ele>
        <time>2013-11-30T18:03:18Z</time>
      </trkpt>
      <trkpt lat="45.84078" lon="4.81246">
        <ele>430.6</ele>
        <time>2013-11-30T18:03:21Z</time>
      </trkpt>
      <trkpt lat="45.84086" lon="4.81248">
        <ele>430.5</ele>
        <time>2013-11-30T18:03:24Z</time>
      </trkpt>
      <trkpt lat="45.84094" lon="4.81249">
        <ele>430.5</ele>
        <time>2013-11-30T18:03:27Z</time>
      </trkpt>
      <trkpt lat="45.84102" lon="4.8125">
        <ele>430.5</ele>
        <time>2013-11-30T18:03:30Z</time>
      </trkpt>
      <trkpt lat="45.84109" lon="4.81251">
        <ele>430.2</ele>
        <time>2013-11-30T18:03:33Z</time>
      </trkpt>
      <trkpt lat="45.84116" lon="4.81251">
        <ele>430.2</ele>
        <time>2013-11-30T18:03:36Z</time>
      </trkpt>
      <trkpt lat="45.84123" lon="4.81251">
        <ele>430.1</ele>
        <time>2013-11-30T18:03:39Z</time>
      </trkpt>
      <trkpt lat="45.8413" lon="4.81251">
        <ele>430</ele>
        <time>2013-11-30T18:03:42Z</time>
      </trkpt>
      <trkpt lat="45.84138" lon="4.8125">
        <ele>429.7</ele>
        <time>2013-11-30T18:03:45Z</time>
      </trkpt>
      <trkpt lat="45.84146" lon="4.81249">
        <ele>429.7</ele>
        <time>2013-11-30T18:03:48Z</time>
      </trkpt>
      <trkpt lat="45.84153" lon="4.81248">
        <ele>429.6</ele>
        <time>2013-11-30T18:03:51Z</time>
      </trkpt>
      <trkpt lat="45.8416" lon="4.81246">
        <ele>429.5</ele>
        <time>2013-11-30T18:03:53Z</time>
      </trkpt>
      <trkpt lat="45.84168" lon="4.81243">
        <ele>429.2</ele>
        <time>2013-11-30T18:03:56Z</time>
      </trkpt>
      <trkpt lat="45.84176" lon="4.81242">
        <ele>428.7</ele>
        <time>2013-11-30T18:03:59Z</time>
      </trkpt>
      <trkpt lat="45.84184" lon="4.81241">
        <ele>428.7</ele>
        <time>2013-11-30T18:04:03Z</time>
      </trkpt>
      <trkpt lat="45.84193" lon="4.81241">
        <ele>428.5</ele>
        <time>2013-11-30T18:04:07Z</time>
      </trkpt>
      <trkpt lat="45.84201" lon="4.8124">
        <ele>428.2</ele>
        <time>2013-11-30T18:04:11Z</time>
      </trkpt>
      <trkpt lat="45.8421" lon="4.8124">
        <ele>428.1</ele>
        <time>2013-11-30T18:04:15Z</time>
      </trkpt>
      <trkpt lat="45.84212" lon="4.81241">
        <ele>428</ele>
        <time>2013-11-30T18:04:16Z</time>
      </trkpt>
      <trkpt lat="45.84226" lon="4.81243">
        <ele>427.7</ele>
        <time>2013-11-30T18:04:23Z</time>
      </trkpt>
      <trkpt lat="45.84234" lon="4.81244">
        <ele>427.7</ele>
        <time>2013-11-30T18:04:26Z</time>
      </trkpt>
      <trkpt lat="45.84241" lon="4.81247">
        <ele>427.6</ele>
        <time>2013-11-30T18:04:29Z</time>
      </trkpt>
      <trkpt lat="45.84249" lon="4.8125">
        <ele>427.5</ele>
        <time>2013-11-30T18:04:33Z</time>
      </trkpt>
      <trkpt lat="45.84255" lon="4.81253">
        <ele>427.2</ele>
        <time>2013-11-30T18:04:36Z</time>
      </trkpt>
      <trkpt lat="45.84263" lon="4.81256">
        <ele>427.2</ele>
        <time>2013-11-30T18:04:39Z</time>
      </trkpt>
      <trkpt lat="45.84271" lon="4.8126">
        <ele>427.2</ele>
        <time>2013-11-30T18:04:42Z</time>
      </trkpt>
      <trkpt lat="45.84278" lon="4.81263">
        <ele>427.1</ele>
        <time>2013-11-30T18:04:45Z</time>
      </trkpt>
      <trkpt lat="45.84285" lon="4.81265">
        <ele>426.7</ele>
        <time>2013-11-30T18:04:48Z</time>
      </trkpt>
      <trkpt lat="45.84292" lon="4.81268">
        <ele>426.6</ele>
        <time>2013-11-30T18:04:52Z</time>
      </trkpt>
      <trkpt lat="45.84301" lon="4.81269">
        <ele>426.1</ele>
        <time>2013-11-30T18:04:59Z</time>
      </trkpt>
      <trkpt lat="45.8431" lon="4.81271">
        <ele>425.5</ele>
        <time>2013-11-30T18:05:05Z</time>
      </trkpt>
      <trkpt lat="45.84311" lon="4.81282">
        <ele>424.2</ele>
        <time>2013-11-30T18:05:58Z</time>
      </trkpt>
      <trkpt lat="45.84311" lon="4.81284">
        <ele>424.1</ele>
        <time>2013-11-30T18:05:59Z</time>
      </trkpt>
      <trkpt lat="45.84314" lon="4.81303">
        <ele>421.7</ele>
        <time>2013-11-30T18:07:16Z</time>
      </trkpt>
      <trkpt lat="45.84314" lon="4.81305">
        <ele>421.6</ele>
        <time>2013-11-30T18:07:17Z</time>
      </trkpt>
      <trkpt lat="45.84311" lon="4.81327">
        <ele>420.7</ele>
        <time>2013-11-30T18:07:29Z</time>
      </trkpt>
      <trkpt lat="45.84312" lon="4.81339">
        <ele>419.7</ele>
        <time>2013-11-30T18:07:37Z</time>
      </trkpt>
      <trkpt lat="45.84313" lon="4.8135">
        <ele>419</ele>
        <time>2013-11-30T18:07:42Z</time>
      </trkpt>
      <trkpt lat="45.84312" lon="4.8136">
        <ele>417.7</ele>
        <time>2013-11-30T18:07:46Z</time>
      </trkpt>
      <trkpt lat="45.84309" lon="4.81371">
        <ele>416.2</ele>
        <time>2013-11-30T18:07:51Z</time>
      </trkpt>
      <trkpt lat="45.84306" lon="4.81381">
        <ele>415.2</ele>
        <time>2013-11-30T18:07:55Z</time>
      </trkpt>
      <trkpt lat="45.84302" lon="4.81391">
        <ele>414.6</ele>
        <time>2013-11-30T18:07:59Z</time>
      </trkpt>
      <trkpt lat="45.84299" lon="4.814">
        <ele>413.7</ele>
        <time>2013-11-30T18:08:03Z</time>
      </trkpt>
      <trkpt lat="45.84295" lon="4.81411">
        <ele>413</ele>
        <time>2013-11-30T18:08:08Z</time>
      </trkpt>
      <trkpt lat="45.84292" lon="4.81422">
        <ele>411.7</ele>
        <time>2013-11-30T18:08:14Z</time>
      </trkpt>
      <trkpt lat="45.84287" lon="4.81432">
        <ele>410.7</ele>
        <time>2013-11-30T18:08:20Z</time>
      </trkpt>
      <trkpt lat="45.84286" lon="4.81434">
        <ele>410.5</ele>
        <time>2013-11-30T18:08:21Z</time>
      </trkpt>
      <trkpt lat="45.84279" lon="4.81449">
        <ele>409.7</ele>
        <time>2013-11-30T18:08:27Z</time>
      </trkpt>
      <trkpt lat="45.84275" lon="4.81458">
        <ele>409.2</ele>
        <time>2013-11-30T18:08:30Z</time>
      </trkpt>
      <trkpt lat="45.84271" lon="4.81468">
        <ele>409.1</ele>
        <time>2013-11-30T18:08:33Z</time>
      </trkpt>
      <trkpt lat="45.84267" lon="4.81479">
        <ele>408.7</ele>
        <time>2013-11-30T18:08:38Z</time>
      </trkpt>
      <trkpt lat="45.84261" lon="4.81487">
        <ele>407.7</ele>
        <time>2013-11-30T18:08:46Z</time>
      </trkpt>
      <trkpt lat="45.84254" lon="4.81493">
        <ele>406.7</ele>
        <time>2013-11-30T18:08:52Z</time>
      </trkpt>
      <trkpt lat="45.84248" lon="4.81503">
        <ele>405.7</ele>
        <time>2013-11-30T18:08:57Z</time>
      </trkpt>
      <trkpt lat="45.84247" lon="4.81514">
        <ele>404.7</ele>
        <time>2013-11-30T18:09:02Z</time>
      </trkpt>
      <trkpt lat="45.84247" lon="4.81527">
        <ele>403.7</ele>
        <time>2013-11-30T18:09:09Z</time>
      </trkpt>
      <trkpt lat="45.84244" lon="4.81537">
        <ele>403.5</ele>
        <time>2013-11-30T18:09:13Z</time>
      </trkpt>
      <trkpt lat="45.8424" lon="4.81546">
        <ele>403.5</ele>
        <time>2013-11-30T18:09:16Z</time>
      </trkpt>
      <trkpt lat="45.84236" lon="4.81556">
        <ele>403.2</ele>
        <time>2013-11-30T18:09:20Z</time>
      </trkpt>
      <trkpt lat="45.84232" lon="4.81566">
        <ele>403.2</ele>
        <time>2013-11-30T18:09:27Z</time>
      </trkpt>
      <trkpt lat="45.84231" lon="4.81568">
        <ele>403.2</ele>
        <time>2013-11-30T18:09:28Z</time>
      </trkpt>
      <trkpt lat="45.84228" lon="4.8159">
        <ele>402.7</ele>
        <time>2013-11-30T18:09:36Z</time>
      </trkpt>
      <trkpt lat="45.84228" lon="4.81602">
        <ele>402.5</ele>
        <time>2013-11-30T18:09:41Z</time>
      </trkpt>
      <trkpt lat="45.84229" lon="4.81613">
        <ele>401.7</ele>
        <time>2013-11-30T18:09:47Z</time>
      </trkpt>
      <trkpt lat="45.8423" lon="4.81625">
        <ele>400.7</ele>
        <time>2013-11-30T18:09:53Z</time>
      </trkpt>
      <trkpt lat="45.84232" lon="4.81636">
        <ele>399.7</ele>
        <time>2013-11-30T18:09:58Z</time>
      </trkpt>
      <trkpt lat="45.84232" lon="4.81648">
        <ele>398.2</ele>
        <time>2013-11-30T18:10:03Z</time>
      </trkpt>
      <trkpt lat="45.8423" lon="4.81659">
        <ele>396.6</ele>
        <time>2013-11-30T18:10:08Z</time>
      </trkpt>
      <trkpt lat="45.84229" lon="4.81671">
        <ele>394.7</ele>
        <time>2013-11-30T18:10:13Z</time>
      </trkpt>
      <trkpt lat="45.84227" lon="4.81682">
        <ele>393.5</ele>
        <time>2013-11-30T18:10:18Z</time>
      </trkpt>
      <trkpt lat="45.84224" lon="4.81695">
        <ele>391.7</ele>
        <time>2013-11-30T18:10:24Z</time>
      </trkpt>
      <trkpt lat="45.84222" lon="4.81705">
        <ele>390.2</ele>
        <time>2013-11-30T18:10:30Z</time>
      </trkpt>
      <trkpt lat="45.84222" lon="4.81707">
        <ele>389.7</ele>
        <time>2013-11-30T18:10:31Z</time>
      </trkpt>
      <trkpt lat="45.84217" lon="4.81726">
        <ele>387.7</ele>
        <time>2013-11-30T18:10:40Z</time>
      </trkpt>
      <trkpt lat="45.84213" lon="4.81737">
        <ele>387</ele>
        <time>2013-11-30T18:10:45Z</time>
      </trkpt>
      <trkpt lat="45.84208" lon="4.81748">
        <ele>386.2</ele>
        <time>2013-11-30T18:10:50Z</time>
      </trkpt>
      <trkpt lat="45.84203" lon="4.81757">
        <ele>385.7</ele>
        <time>2013-11-30T18:10:55Z</time>
      </trkpt>
      <trkpt lat="45.84197" lon="4.81764">
        <ele>384.5</ele>
        <time>2013-11-30T18:11:03Z</time>
      </trkpt>
      <trkpt lat="45.84191" lon="4.81773">
        <ele>383.7</ele>
        <time>2013-11-30T18:11:07Z</time>
      </trkpt>
      <trkpt lat="45.84185" lon="4.81782">
        <ele>383.2</ele>
        <time>2013-11-30T18:11:11Z</time>
      </trkpt>
      <trkpt lat="45.84181" lon="4.81793">
        <ele>382.2</ele>
        <time>2013-11-30T18:11:15Z</time>
      </trkpt>
      <trkpt lat="45.84179" lon="4.81804">
        <ele>381.6</ele>
        <time>2013-11-30T18:11:18Z</time>
      </trkpt>
      <trkpt lat="45.84174" lon="4.81814">
        <ele>380.7</ele>
        <time>2013-11-30T18:11:21Z</time>
      </trkpt>
      <trkpt lat="45.84169" lon="4.81823">
        <ele>379.2</ele>
        <time>2013-11-30T18:11:25Z</time>
      </trkpt>
      <trkpt lat="45.84164" lon="4.81834">
        <ele>378</ele>
        <time>2013-11-30T18:11:29Z</time>
      </trkpt>
      <trkpt lat="45.84159" lon="4.81843">
        <ele>376.5</ele>
        <time>2013-11-30T18:11:33Z</time>
      </trkpt>
      <trkpt lat="45.84157" lon="4.81845">
        <ele>376.1</ele>
        <time>2013-11-30T18:11:34Z</time>
      </trkpt>
      <trkpt lat="45.84148" lon="4.81861">
        <ele>373.7</ele>
        <time>2013-11-30T18:11:41Z</time>
      </trkpt>
      <trkpt lat="45.84143" lon="4.8187">
        <ele>372.2</ele>
        <time>2013-11-30T18:11:45Z</time>
      </trkpt>
      <trkpt lat="45.8414" lon="4.8188">
        <ele>371</ele>
        <time>2013-11-30T18:11:49Z</time>
      </trkpt>
      <trkpt lat="45.84135" lon="4.8189">
        <ele>368.7</ele>
        <time>2013-11-30T18:11:58Z</time>
      </trkpt>
      <trkpt lat="45.84127" lon="4.81894">
        <ele>363.2</ele>
        <time>2013-11-30T18:12:25Z</time>
      </trkpt>
      <trkpt lat="45.84123" lon="4.81904">
        <ele>361.6</ele>
        <time>2013-11-30T18:12:32Z</time>
      </trkpt>
      <trkpt lat="45.8412" lon="4.81915">
        <ele>359.5</ele>
        <time>2013-11-30T18:12:41Z</time>
      </trkpt>
      <trkpt lat="45.8412" lon="4.81917">
        <ele>359.2</ele>
        <time>2013-11-30T18:12:42Z</time>
      </trkpt>
      <trkpt lat="45.84118" lon="4.8194">
        <ele>352.6</ele>
        <time>2013-11-30T18:13:11Z</time>
      </trkpt>
      <trkpt lat="45.84114" lon="4.8195">
        <ele>351</ele>
        <time>2013-11-30T18:13:22Z</time>
      </trkpt>
      <trkpt lat="45.84111" lon="4.81962">
        <ele>347.7</ele>
        <time>2013-11-30T18:13:28Z</time>
      </trkpt>
      <trkpt lat="45.84108" lon="4.81973">
        <ele>345.5</ele>
        <time>2013-11-30T18:13:33Z</time>
      </trkpt>
      <trkpt lat="45.84106" lon="4.81985">
        <ele>342.7</ele>
        <time>2013-11-30T18:13:38Z</time>
      </trkpt>
      <trkpt lat="45.84106" lon="4.81995">
        <ele>341.2</ele>
        <time>2013-11-30T18:13:41Z</time>
      </trkpt>
      <trkpt lat="45.84105" lon="4.82007">
        <ele>339.6</ele>
        <time>2013-11-30T18:13:44Z</time>
      </trkpt>
      <trkpt lat="45.84105" lon="4.82011">
        <ele>339</ele>
        <time>2013-11-30T18:13:45Z</time>
      </trkpt>
      <trkpt lat="45.84105" lon="4.82029">
        <ele>335.2</ele>
        <time>2013-11-30T18:13:51Z</time>
      </trkpt>
      <trkpt lat="45.84104" lon="4.82039">
        <ele>333.2</ele>
        <time>2013-11-30T18:13:55Z</time>
      </trkpt>
      <trkpt lat="45.84104" lon="4.82052">
        <ele>328.7</ele>
        <time>2013-11-30T18:14:03Z</time>
      </trkpt>
      <trkpt lat="45.84101" lon="4.82062">
        <ele>325.7</ele>
        <time>2013-11-30T18:14:09Z</time>
      </trkpt>
      <trkpt lat="45.84097" lon="4.82072">
        <ele>323.7</ele>
        <time>2013-11-30T18:14:13Z</time>
      </trkpt>
      <trkpt lat="45.84095" lon="4.82085">
        <ele>321.2</ele>
        <time>2013-11-30T18:14:18Z</time>
      </trkpt>
      <trkpt lat="45.84097" lon="4.82095">
        <ele>319</ele>
        <time>2013-11-30T18:14:23Z</time>
      </trkpt>
      <trkpt lat="45.84097" lon="4.82107">
        <ele>316.2</ele>
        <time>2013-11-30T18:14:29Z</time>
      </trkpt>
      <trkpt lat="45.84098" lon="4.82118">
        <ele>314.1</ele>
        <time>2013-11-30T18:14:34Z</time>
      </trkpt>
      <trkpt lat="45.84098" lon="4.82131">
        <ele>311.7</ele>
        <time>2013-11-30T18:14:40Z</time>
      </trkpt>
      <trkpt lat="45.84097" lon="4.82143">
        <ele>309.2</ele>
        <time>2013-11-30T18:14:46Z</time>
      </trkpt>
      <trkpt lat="45.84097" lon="4.82145">
        <ele>308.7</ele>
        <time>2013-11-30T18:14:47Z</time>
      </trkpt>
      <trkpt lat="45.84093" lon="4.82167">
        <ele>303.1</ele>
        <time>2013-11-30T18:14:57Z</time>
      </trkpt>
      <trkpt lat="45.84091" lon="4.82179">
        <ele>300.1</ele>
        <time>2013-11-30T18:15:02Z</time>
      </trkpt>
      <trkpt lat="45.84089" lon="4.8219">
        <ele>298.2</ele>
        <time>2013-11-30T18:15:06Z</time>
      </trkpt>
      <trkpt lat="45.84086" lon="4.82201">
        <ele>296.7</ele>
        <time>2013-11-30T18:15:11Z</time>
      </trkpt>
      <trkpt lat="45.84081" lon="4.82212">
        <ele>295.2</ele>
        <time>2013-11-30T18:15:16Z</time>
      </trkpt>
      <trkpt lat="45.84078" lon="4.82222">
        <ele>294</ele>
        <time>2013-11-30T18:15:20Z</time>
      </trkpt>
      <trkpt lat="45.84075" lon="4.82231">
        <ele>293.2</ele>
        <time>2013-11-30T18:15:23Z</time>
      </trkpt>
      <trkpt lat="45.84071" lon="4.82239">
        <ele>292.7</ele>
        <time>2013-11-30T18:15:25Z</time>
      </trkpt>
      <trkpt lat="45.84067" lon="4.82248">
        <ele>292.2</ele>
        <time>2013-11-30T18:15:27Z</time>
      </trkpt>
      <trkpt lat="45.84064" lon="4.82256">
        <ele>291.7</ele>
        <time>2013-11-30T18:15:29Z</time>
      </trkpt>
      <trkpt lat="45.8406" lon="4.82267">
        <ele>291</ele>
        <time>2013-11-30T18:15:32Z</time>
      </trkpt>
      <trkpt lat="45.84056" lon="4.82276">
        <ele>290.1</ele>
        <time>2013-11-30T18:15:35Z</time>
      </trkpt>
      <trkpt lat="45.84052" lon="4.82286">
        <ele>288.7</ele>
        <time>2013-11-30T18:15:39Z</time>
      </trkpt>
      <trkpt lat="45.84049" lon="4.82297">
        <ele>287.2</ele>
        <time>2013-11-30T18:15:43Z</time>
      </trkpt>
      <trkpt lat="45.84045" lon="4.82308">
        <ele>285.7</ele>
        <time>2013-11-30T18:15:47Z</time>
      </trkpt>
      <trkpt lat="45.84044" lon="4.82311">
        <ele>285.2</ele>
        <time>2013-11-30T18:15:48Z</time>
      </trkpt>
      <trkpt lat="45.84037" lon="4.8233">
        <ele>283.6</ele>
        <time>2013-11-30T18:16:04Z</time>
      </trkpt>
      <trkpt lat="45.84033" lon="4.82341">
        <ele>282.5</ele>
        <time>2013-11-30T18:16:22Z</time>
      </trkpt>
      <trkpt lat="45.84028" lon="4.82351">
        <ele>278.7</ele>
        <time>2013-11-30T18:16:40Z</time>
      </trkpt>
      <trkpt lat="45.84025" lon="4.82362">
        <ele>277.2</ele>
        <time>2013-11-30T18:16:44Z</time>
      </trkpt>
      <trkpt lat="45.84022" lon="4.82373">
        <ele>275.2</ele>
        <time>2013-11-30T18:16:49Z</time>
      </trkpt>
      <trkpt lat="45.84021" lon="4.82375">
        <ele>275</ele>
        <time>2013-11-30T18:16:50Z</time>
      </trkpt>
      <trkpt lat="45.84017" lon="4.82397">
        <ele>270.2</ele>
        <time>2013-11-30T18:17:04Z</time>
      </trkpt>
      <trkpt lat="45.84013" lon="4.82406">
        <ele>269</ele>
        <time>2013-11-30T18:17:09Z</time>
      </trkpt>
      <trkpt lat="45.84009" lon="4.82417">
        <ele>267.7</ele>
        <time>2013-11-30T18:17:14Z</time>
      </trkpt>
      <trkpt lat="45.84006" lon="4.82427">
        <ele>266.5</ele>
        <time>2013-11-30T18:17:19Z</time>
      </trkpt>
      <trkpt lat="45.84002" lon="4.82439">
        <ele>265.2</ele>
        <time>2013-11-30T18:17:25Z</time>
      </trkpt>
      <trkpt lat="45.84" lon="4.8245">
        <ele>264.5</ele>
        <time>2013-11-30T18:17:30Z</time>
      </trkpt>
      <trkpt lat="45.84" lon="4.82463">
        <ele>263.7</ele>
        <time>2013-11-30T18:17:34Z</time>
      </trkpt>
      <trkpt lat="45.83999" lon="4.82474">
        <ele>262.7</ele>
        <time>2013-11-30T18:17:38Z</time>
      </trkpt>
      <trkpt lat="45.83998" lon="4.82486">
        <ele>261.6</ele>
        <time>2013-11-30T18:17:42Z</time>
      </trkpt>
      <trkpt lat="45.83994" lon="4.82495">
        <ele>260.2</ele>
        <time>2013-11-30T18:17:45Z</time>
      </trkpt>
      <trkpt lat="45.83989" lon="4.82504">
        <ele>259</ele>
        <time>2013-11-30T18:17:48Z</time>
      </trkpt>
      <trkpt lat="45.83985" lon="4.82515">
        <ele>257.1</ele>
        <time>2013-11-30T18:17:54Z</time>
      </trkpt>
      <trkpt lat="45.83985" lon="4.82515">
        <ele>257</ele>
        <time>2013-11-30T18:17:55Z</time>
      </trkpt>
      <trkpt lat="45.83979" lon="4.82534">
        <ele>251.5</ele>
        <time>2013-11-30T18:18:09Z</time>
      </trkpt>
      <trkpt lat="45.83976" lon="4.82546">
        <ele>249.8</ele>
        <time>2013-11-30T18:18:13Z</time>
      </trkpt>
      <trkpt lat="45.83974" lon="4.82555">
        <ele>248.6</ele>
        <time>2013-11-30T18:18:16Z</time>
      </trkpt>
      <trkpt lat="45.83972" lon="4.82567">
        <ele>246.8</ele>
        <time>2013-11-30T18:18:20Z</time>
      </trkpt>
      <trkpt lat="45.8397" lon="4.82579">
        <ele>245.3</ele>
        <time>2013-11-30T18:18:24Z</time>
      </trkpt>
      <trkpt lat="45.8397" lon="4.8259">
        <ele>243.8</ele>
        <time>2013-11-30T18:18:28Z</time>
      </trkpt>
      <trkpt lat="45.83969" lon="4.82601">
        <ele>242.1</ele>
        <time>2013-11-30T18:18:32Z</time>
      </trkpt>
      <trkpt lat="45.8397" lon="4.82611">
        <ele>240.6</ele>
        <time>2013-11-30T18:18:36Z</time>
      </trkpt>
      <trkpt lat="45.83971" lon="4.82623">
        <ele>239.1</ele>
        <time>2013-11-30T18:18:40Z</time>
      </trkpt>
      <trkpt lat="45.83973" lon="4.82633">
        <ele>238.1</ele>
        <time>2013-11-30T18:18:43Z</time>
      </trkpt>
      <trkpt lat="45.83975" lon="4.82644">
        <ele>237</ele>
        <time>2013-11-30T18:18:46Z</time>
      </trkpt>
      <trkpt lat="45.83977" lon="4.82654">
        <ele>236</ele>
        <time>2013-11-30T18:18:49Z</time>
      </trkpt>
      <trkpt lat="45.83978" lon="4.82664">
        <ele>234.8</ele>
        <time>2013-11-30T18:18:52Z</time>
      </trkpt>
      <trkpt lat="45.83981" lon="4.82675">
        <ele>233.3</ele>
        <time>2013-11-30T18:18:56Z</time>
      </trkpt>
      <trkpt lat="45.83982" lon="4.82678">
        <ele>232.8</ele>
        <time>2013-11-30T18:18:57Z</time>
      </trkpt>
      <trkpt lat="45.83989" lon="4.82697">
        <ele>230.1</ele>
        <time>2013-11-30T18:19:04Z</time>
      </trkpt>
      <trkpt lat="45.83993" lon="4.82708">
        <ele>228.3</ele>
        <time>2013-11-30T18:19:08Z</time>
      </trkpt>
      <trkpt lat="45.83997" lon="4.82717">
        <ele>227.1</ele>
        <time>2013-11-30T18:19:11Z</time>
      </trkpt>
      <trkpt lat="45.84002" lon="4.82727">
        <ele>225.8</ele>
        <time>2013-11-30T18:19:14Z</time>
      </trkpt>
      <trkpt lat="45.84008" lon="4.82735">
        <ele>224.3</ele>
        <time>2013-11-30T18:19:18Z</time>
      </trkpt>
      <trkpt lat="45.84015" lon="4.82736">
        <ele>223.1</ele>
        <time>2013-11-30T18:19:21Z</time>
      </trkpt>
      <trkpt lat="45.84022" lon="4.82735">
        <ele>222</ele>
        <time>2013-11-30T18:19:24Z</time>
      </trkpt>
      <trkpt lat="45.8402" lon="4.82747">
        <ele>217.8</ele>
        <time>2013-11-30T18:19:35Z</time>
      </trkpt>
      <trkpt lat="45.84013" lon="4.82755">
        <ele>216.8</ele>
        <time>2013-11-30T18:19:38Z</time>
      </trkpt>
      <trkpt lat="45.84007" lon="4.82762">
        <ele>215.6</ele>
        <time>2013-11-30T18:19:41Z</time>
      </trkpt>
      <trkpt lat="45.84003" lon="4.82768">
        <ele>215</ele>
        <time>2013-11-30T18:19:43Z</time>
      </trkpt>
      <trkpt lat="45.83999" lon="4.82775">
        <ele>214.3</ele>
        <time>2013-11-30T18:19:45Z</time>
      </trkpt>
      <trkpt lat="45.83995" lon="4.82782">
        <ele>213.5</ele>
        <time>2013-11-30T18:19:47Z</time>
      </trkpt>
      <trkpt lat="45.83989" lon="4.82792">
        <ele>212.3</ele>
        <time>2013-11-30T18:19:50Z</time>
      </trkpt>
      <trkpt lat="45.83984" lon="4.82801">
        <ele>211</ele>
        <time>2013-11-30T18:19:53Z</time>
      </trkpt>
      <trkpt lat="45.83978" lon="4.82809">
        <ele>209.6</ele>
        <time>2013-11-30T18:19:56Z</time>
      </trkpt>
      <trkpt lat="45.83974" lon="4.8282">
        <ele>208.3</ele>
        <time>2013-11-30T18:19:59Z</time>
      </trkpt>
      <trkpt lat="45.83973" lon="4.82824">
        <ele>207.8</ele>
        <time>2013-11-30T18:20:00Z</time>
      </trkpt>
      <trkpt lat="45.83977" lon="4.82842">
        <ele>205.8</ele>
        <time>2013-11-30T18:20:05Z</time>
      </trkpt>
      <trkpt lat="45.83981" lon="4.82851">
        <ele>204.6</ele>
        <time>2013-11-30T18:20:08Z</time>
      </trkpt>
      <trkpt lat="45.83985" lon="4.82861">
        <ele>203.8</ele>
        <time>2013-11-30T18:20:12Z</time>
      </trkpt>
      <trkpt lat="45.83991" lon="4.82868">
        <ele>203</ele>
        <time>2013-11-30T18:20:16Z</time>
      </trkpt>
      <trkpt lat="45.83999" lon="4.82872">
        <ele>202.5</ele>
        <time>2013-11-30T18:20:20Z</time>
      </trkpt>
      <trkpt lat="45.84006" lon="4.82875">
        <ele>202</ele>
        <time>2013-11-30T18:20:23Z</time>
      </trkpt>
      <trkpt lat="45.84014" lon="4.82878">
        <ele>201.3</ele>
        <time>2013-11-30T18:20:26Z</time>
      </trkpt>
      <trkpt lat="45.84022" lon="4.82884">
        <ele>200.5</ele>
        <time>2013-11-30T18:20:29Z</time>
      </trkpt>
      <trkpt lat="45.8403" lon="4.82888">
        <ele>199.8</ele>
        <time>2013-11-30T18:20:32Z</time>
      </trkpt>
      <trkpt lat="45.84037" lon="4.82892">
        <ele>199.1</ele>
        <time>2013-11-30T18:20:35Z</time>
      </trkpt>
      <trkpt lat="45.84043" lon="4.82899">
        <ele>198.5</ele>
        <time>2013-11-30T18:20:38Z</time>
      </trkpt>
      <trkpt lat="45.84049" lon="4.82909">
        <ele>197.6</ele>
        <time>2013-11-30T18:20:41Z</time>
      </trkpt>
      <trkpt lat="45.84055" lon="4.82918">
        <ele>196.1</ele>
        <time>2013-11-30T18:20:45Z</time>
      </trkpt>
      <trkpt lat="45.84062" lon="4.82921">
        <ele>194.8</ele>
        <time>2013-11-30T18:20:50Z</time>
      </trkpt>
      <trkpt lat="45.8407" lon="4.8292">
        <ele>193.6</ele>
        <time>2013-11-30T18:20:55Z</time>
      </trkpt>
      <trkpt lat="45.84078" lon="4.82921">
        <ele>192.6</ele>
        <time>2013-11-30T18:20:59Z</time>
      </trkpt>
      <trkpt lat="45.84086" lon="4.8292">
        <ele>191.8</ele>
        <time>2013-11-30T18:21:03Z</time>
      </trkpt>
      <trkpt lat="45.84088" lon="4.82921">
        <ele>191.6</ele>
        <time>2013-11-30T18:21:04Z</time>
      </trkpt>
      <trkpt lat="45.84102" lon="4.82922">
        <ele>190.5</ele>
        <time>2013-11-30T18:21:12Z</time>
      </trkpt>
      <trkpt lat="45.84111" lon="4.82922">
        <ele>190.1</ele>
        <time>2013-11-30T18:21:16Z</time>
      </trkpt>
      <trkpt lat="45.84119" lon="4.82918">
        <ele>189.3</ele>
        <time>2013-11-30T18:21:21Z</time>
      </trkpt>
      <trkpt lat="45.84127" lon="4.82914">
        <ele>188.3</ele>
        <time>2013-11-30T18:21:27Z</time>
      </trkpt>
      <trkpt lat="45.84135" lon="4.8291">
        <ele>187.5</ele>
        <time>2013-11-30T18:21:32Z</time>
      </trkpt>
      <trkpt lat="45.84142" lon="4.82908">
        <ele>186.6</ele>
        <time>2013-11-30T18:21:36Z</time>
      </trkpt>
      <trkpt lat="45.84149" lon="4.82908">
        <ele>186</ele>
        <time>2013-11-30T18:21:39Z</time>
      </trkpt>
      <trkpt lat="45.84158" lon="4.82908">
        <ele>185.1</ele>
        <time>2013-11-30T18:21:43Z</time>
      </trkpt>
      <trkpt lat="45.84165" lon="4.82908">
        <ele>184.3</ele>
        <time>2013-11-30T18:21:47Z</time>
      </trkpt>
      <trkpt lat="45.84173" lon="4.82907">
        <ele>183.6</ele>
        <time>2013-11-30T18:21:51Z</time>
      </trkpt>
      <trkpt lat="45.8418" lon="4.82906">
        <ele>183</ele>
        <time>2013-11-30T18:21:55Z</time>
      </trkpt>
      <trkpt lat="45.84188" lon="4.82904">
        <ele>182.3</ele>
        <time>2013-11-30T18:21:59Z</time>
      </trkpt>
      <trkpt lat="45.84195" lon="4.82902">
        <ele>181.8</ele>
        <time>2013-11-30T18:22:03Z</time>
      </trkpt>
      <trkpt lat="45.84203" lon="4.829">
        <ele>181.1</ele>
        <time>2013-11-30T18:22:07Z</time>
      </trkpt>
      <trkpt lat="45.84205" lon="4.829">
        <ele>181</ele>
        <time>2013-11-30T18:22:08Z</time>
      </trkpt>
      <trkpt lat="45.84219" lon="4.82896">
        <ele>180.1</ele>
        <time>2013-11-30T18:22:15Z</time>
      </trkpt>
      <trkpt lat="45.84228" lon="4.82898">
        <ele>180.1</ele>
        <time>2013-11-30T18:22:19Z</time>
      </trkpt>
      <trkpt lat="45.84235" lon="4.82899">
        <ele>180</ele>
        <time>2013-11-30T18:22:22Z</time>
      </trkpt>
      <trkpt lat="45.84243" lon="4.82898">
        <ele>179.8</ele>
        <time>2013-11-30T18:22:25Z</time>
      </trkpt>
      <trkpt lat="45.84252" lon="4.82895">
        <ele>179.8</ele>
        <time>2013-11-30T18:22:28Z</time>
      </trkpt>
      <trkpt lat="45.84258" lon="4.82894">
        <ele>180</ele>
        <time>2013-11-30T18:22:30Z</time>
      </trkpt>
      <trkpt lat="45.84266" lon="4.82893">
        <ele>180.1</ele>
        <time>2013-11-30T18:22:32Z</time>
      </trkpt>
      <trkpt lat="45.84272" lon="4.82893">
        <ele>180.1</ele>
        <time>2013-11-30T18:22:34Z</time>
      </trkpt>
      <trkpt lat="45.84278" lon="4.82891">
        <ele>180.1</ele>
        <time>2013-11-30T18:22:36Z</time>
      </trkpt>
      <trkpt lat="45.84286" lon="4.82889">
        <ele>180.1</ele>
        <time>2013-11-30T18:22:39Z</time>
      </trkpt>
      <trkpt lat="45.84294" lon="4.82888">
        <ele>180.1</ele>
        <time>2013-11-30T18:22:42Z</time>
      </trkpt>
      <trkpt lat="45.84301" lon="4.82887">
        <ele>180.1</ele>
        <time>2013-11-30T18:22:45Z</time>
      </trkpt>
      <trkpt lat="45.84309" lon="4.82889">
        <ele>179.8</ele>
        <time>2013-11-30T18:22:49Z</time>
      </trkpt>
      <trkpt lat="45.84317" lon="4.8289">
        <ele>179.6</ele>
        <time>2013-11-30T18:22:53Z</time>
      </trkpt>
      <trkpt lat="45.84326" lon="4.8289">
        <ele>179.5</ele>
        <time>2013-11-30T18:22:58Z</time>
      </trkpt>
      <trkpt lat="45.84335" lon="4.8289">
        <ele>179.3</ele>
        <time>2013-11-30T18:23:03Z</time>
      </trkpt>
      <trkpt lat="45.84343" lon="4.8289">
        <ele>179.3</ele>
        <time>2013-11-30T18:23:08Z</time>
      </trkpt>
      <trkpt lat="45.84345" lon="4.8289">
        <ele>179.3</ele>
        <time>2013-11-30T18:23:09Z</time>
      </trkpt>
    </trkseg>
  </trk>
</gpx>